<?xml version="1.0" encoding="UTF-8" standalone="no" ?>
<gpx xmlns="http://www.topografix.com/GPX/1/1" xmlns:xsi="http://www.w3.org/2001/XMLSchema-instance" xsi:schemaLocation="http://www.topografix.com/GPX/1/1 http://www.topografix.com/GPX/1/1/gpx.xsd" version="1.1" creator="VisuGPX - https://www.visugpx.com">
  <metadata>
    <name>Pascal Duquenne Classic 40 kms</name>
  </metadata>
  <trk>
    <name><![CDATA[Pascal Duquenne Classic 40 kms]]></name>
    <trkseg>
      <trkpt lat="50.546" lon="3.33987">
        <ele>60.23</ele>
        <time>2023-05-19T11:23:22.000Z</time>
      </trkpt>
      <trkpt lat="50.5463" lon="3.34006">
        <ele>60.52</ele>
        <time>2023-05-19T11:23:22.005Z</time>
      </trkpt>
      <trkpt lat="50.54665" lon="3.34027">
        <ele>60.3</ele>
        <time>2023-05-19T11:23:22.016Z</time>
      </trkpt>
      <trkpt lat="50.54678" lon="3.34035">
        <ele>59.76</ele>
        <time>2023-05-19T11:23:22.029Z</time>
      </trkpt>
      <trkpt lat="50.54703" lon="3.34047">
        <ele>61.06</ele>
        <time>2023-05-19T11:23:22.047Z</time>
      </trkpt>
      <trkpt lat="50.54734" lon="3.34061">
        <ele>61.08</ele>
        <time>2023-05-19T11:23:22.070Z</time>
      </trkpt>
      <trkpt lat="50.54765" lon="3.34081">
        <ele>61.14</ele>
        <time>2023-05-19T11:23:22.098Z</time>
      </trkpt>
      <trkpt lat="50.54787" lon="3.34095">
        <ele>61.13</ele>
        <time>2023-05-19T11:23:22.130Z</time>
      </trkpt>
      <trkpt lat="50.54822" lon="3.34122">
        <ele>61.02</ele>
        <time>2023-05-19T11:23:22.168Z</time>
      </trkpt>
      <trkpt lat="50.54835" lon="3.34127">
        <ele>60.95</ele>
        <time>2023-05-19T11:23:22.208Z</time>
      </trkpt>
      <trkpt lat="50.54854" lon="3.34131">
        <ele>60.8</ele>
        <time>2023-05-19T11:23:22.251Z</time>
      </trkpt>
      <trkpt lat="50.54884" lon="3.34136">
        <ele>60.7</ele>
        <time>2023-05-19T11:23:22.299Z</time>
      </trkpt>
      <trkpt lat="50.54906" lon="3.34146">
        <ele>60.74</ele>
        <time>2023-05-19T11:23:22.351Z</time>
      </trkpt>
      <trkpt lat="50.54929" lon="3.34157">
        <ele>60.78</ele>
        <time>2023-05-19T11:23:22.407Z</time>
      </trkpt>
      <trkpt lat="50.54932" lon="3.34158">
        <ele>60.77</ele>
        <time>2023-05-19T11:23:22.463Z</time>
      </trkpt>
      <trkpt lat="50.54946" lon="3.34164">
        <ele>60.75</ele>
        <time>2023-05-19T11:23:22.522Z</time>
      </trkpt>
      <trkpt lat="50.5496" lon="3.34169">
        <ele>60.7</ele>
        <time>2023-05-19T11:23:22.583Z</time>
      </trkpt>
      <trkpt lat="50.54971" lon="3.34173">
        <ele>60.66</ele>
        <time>2023-05-19T11:23:22.646Z</time>
      </trkpt>
      <trkpt lat="50.54982" lon="3.34177">
        <ele>60.61</ele>
        <time>2023-05-19T11:23:22.711Z</time>
      </trkpt>
      <trkpt lat="50.54991" lon="3.34175">
        <ele>60.6</ele>
        <time>2023-05-19T11:23:22.777Z</time>
      </trkpt>
      <trkpt lat="50.54994" lon="3.34177">
        <ele>60.56</ele>
        <time>2023-05-19T11:23:22.843Z</time>
      </trkpt>
      <trkpt lat="50.54998" lon="3.34176">
        <ele>60.52</ele>
        <time>2023-05-19T11:23:22.910Z</time>
      </trkpt>
      <trkpt lat="50.55016" lon="3.34193">
        <ele>60.39</ele>
        <time>2023-05-19T11:23:22.980Z</time>
      </trkpt>
      <trkpt lat="50.55072" lon="3.3433">
        <ele>60.44</ele>
        <time>2023-05-19T11:23:23.067Z</time>
      </trkpt>
      <trkpt lat="50.55104" lon="3.34381">
        <ele>60.11</ele>
        <time>2023-05-19T11:23:23.161Z</time>
      </trkpt>
      <trkpt lat="50.55127" lon="3.34429">
        <ele>59.73</ele>
        <time>2023-05-19T11:23:23.261Z</time>
      </trkpt>
      <trkpt lat="50.55157" lon="3.34525">
        <ele>59.81</ele>
        <time>2023-05-19T11:23:23.372Z</time>
      </trkpt>
      <trkpt lat="50.55157" lon="3.34525">
        <ele>59.81</ele>
        <time>2023-05-19T11:23:23.483Z</time>
      </trkpt>
      <trkpt lat="50.55157" lon="3.34525">
        <ele>59.82</ele>
        <time>2023-05-19T11:23:23.594Z</time>
      </trkpt>
      <trkpt lat="50.55157" lon="3.34525">
        <ele>59.82</ele>
        <time>2023-05-19T11:23:23.705Z</time>
      </trkpt>
      <trkpt lat="50.55157" lon="3.34525">
        <ele>59.82</ele>
        <time>2023-05-19T11:23:23.816Z</time>
      </trkpt>
      <trkpt lat="50.55157" lon="3.34524">
        <ele>59.83</ele>
        <time>2023-05-19T11:23:23.928Z</time>
      </trkpt>
      <trkpt lat="50.55182" lon="3.34606">
        <ele>59.8</ele>
        <time>2023-05-19T11:23:24.049Z</time>
      </trkpt>
      <trkpt lat="50.55214" lon="3.34716">
        <ele>59.96</ele>
        <time>2023-05-19T11:23:24.182Z</time>
      </trkpt>
      <trkpt lat="50.55224" lon="3.34741">
        <ele>59.88</ele>
        <time>2023-05-19T11:23:24.318Z</time>
      </trkpt>
      <trkpt lat="50.55228" lon="3.3475">
        <ele>59.65</ele>
        <time>2023-05-19T11:23:24.455Z</time>
      </trkpt>
      <trkpt lat="50.55234" lon="3.34759">
        <ele>59.29</ele>
        <time>2023-05-19T11:23:24.594Z</time>
      </trkpt>
      <trkpt lat="50.55268" lon="3.3479">
        <ele>58.77</ele>
        <time>2023-05-19T11:23:24.739Z</time>
      </trkpt>
      <trkpt lat="50.55307" lon="3.34833">
        <ele>58.26</ele>
        <time>2023-05-19T11:23:24.892Z</time>
      </trkpt>
      <trkpt lat="50.55317" lon="3.3482">
        <ele>57.66</ele>
        <time>2023-05-19T11:23:25.047Z</time>
      </trkpt>
      <trkpt lat="50.55358" lon="3.34795">
        <ele>56.77</ele>
        <time>2023-05-19T11:23:25.209Z</time>
      </trkpt>
      <trkpt lat="50.55365" lon="3.34793">
        <ele>56.02</ele>
        <time>2023-05-19T11:23:25.372Z</time>
      </trkpt>
      <trkpt lat="50.55414" lon="3.34794">
        <ele>54.96</ele>
        <time>2023-05-19T11:23:25.543Z</time>
      </trkpt>
      <trkpt lat="50.55444" lon="3.34787">
        <ele>54.13</ele>
        <time>2023-05-19T11:23:25.718Z</time>
      </trkpt>
      <trkpt lat="50.55446" lon="3.34789">
        <ele>53.52</ele>
        <time>2023-05-19T11:23:25.894Z</time>
      </trkpt>
      <trkpt lat="50.55461" lon="3.34783">
        <ele>53.02</ele>
        <time>2023-05-19T11:23:26.072Z</time>
      </trkpt>
      <trkpt lat="50.55461" lon="3.34783">
        <ele>52.62</ele>
        <time>2023-05-19T11:23:26.250Z</time>
      </trkpt>
      <trkpt lat="50.55513" lon="3.3476">
        <ele>52.24</ele>
        <time>2023-05-19T11:23:26.437Z</time>
      </trkpt>
      <trkpt lat="50.55521" lon="3.34761">
        <ele>51.99</ele>
        <time>2023-05-19T11:23:26.625Z</time>
      </trkpt>
      <trkpt lat="50.55527" lon="3.34765">
        <ele>51.81</ele>
        <time>2023-05-19T11:23:26.814Z</time>
      </trkpt>
      <trkpt lat="50.55534" lon="3.34776">
        <ele>51.74</ele>
        <time>2023-05-19T11:23:27.005Z</time>
      </trkpt>
      <trkpt lat="50.55539" lon="3.34803">
        <ele>51.75</ele>
        <time>2023-05-19T11:23:27.199Z</time>
      </trkpt>
      <trkpt lat="50.55548" lon="3.34877">
        <ele>51.75</ele>
        <time>2023-05-19T11:23:27.400Z</time>
      </trkpt>
      <trkpt lat="50.55551" lon="3.34888">
        <ele>51.84</ele>
        <time>2023-05-19T11:23:27.603Z</time>
      </trkpt>
      <trkpt lat="50.55555" lon="3.34897">
        <ele>51.98</ele>
        <time>2023-05-19T11:23:27.807Z</time>
      </trkpt>
      <trkpt lat="50.55562" lon="3.34906">
        <ele>52.18</ele>
        <time>2023-05-19T11:23:28.012Z</time>
      </trkpt>
      <trkpt lat="50.55576" lon="3.34915">
        <ele>52.43</ele>
        <time>2023-05-19T11:23:28.220Z</time>
      </trkpt>
      <trkpt lat="50.55583" lon="3.34921">
        <ele>52.5</ele>
        <time>2023-05-19T11:23:28.429Z</time>
      </trkpt>
      <trkpt lat="50.55628" lon="3.34924">
        <ele>52.29</ele>
        <time>2023-05-19T11:23:28.645Z</time>
      </trkpt>
      <trkpt lat="50.55697" lon="3.34946">
        <ele>52.05</ele>
        <time>2023-05-19T11:23:28.872Z</time>
      </trkpt>
      <trkpt lat="50.55697" lon="3.34946">
        <ele>52.06</ele>
        <time>2023-05-19T11:23:29.099Z</time>
      </trkpt>
      <trkpt lat="50.55744" lon="3.3496">
        <ele>50.1</ele>
        <time>2023-05-19T11:23:29.334Z</time>
      </trkpt>
      <trkpt lat="50.55745" lon="3.3496">
        <ele>50.09</ele>
        <time>2023-05-19T11:23:29.569Z</time>
      </trkpt>
      <trkpt lat="50.55745" lon="3.3496">
        <ele>50.08</ele>
        <time>2023-05-19T11:23:29.804Z</time>
      </trkpt>
      <trkpt lat="50.55745" lon="3.3496">
        <ele>50.08</ele>
        <time>2023-05-19T11:23:30.039Z</time>
      </trkpt>
      <trkpt lat="50.55745" lon="3.3496">
        <ele>50.08</ele>
        <time>2023-05-19T11:23:30.274Z</time>
      </trkpt>
      <trkpt lat="50.55745" lon="3.3496">
        <ele>50.08</ele>
        <time>2023-05-19T11:23:30.509Z</time>
      </trkpt>
      <trkpt lat="50.55881" lon="3.34999">
        <ele>48.28</ele>
        <time>2023-05-19T11:23:30.766Z</time>
      </trkpt>
      <trkpt lat="50.55892" lon="3.35006">
        <ele>47.75</ele>
        <time>2023-05-19T11:23:31.025Z</time>
      </trkpt>
      <trkpt lat="50.55908" lon="3.35018">
        <ele>47.58</ele>
        <time>2023-05-19T11:23:31.287Z</time>
      </trkpt>
      <trkpt lat="50.55921" lon="3.35037">
        <ele>47.66</ele>
        <time>2023-05-19T11:23:31.552Z</time>
      </trkpt>
      <trkpt lat="50.55917" lon="3.35057">
        <ele>47.98</ele>
        <time>2023-05-19T11:23:31.819Z</time>
      </trkpt>
      <trkpt lat="50.55905" lon="3.35167">
        <ele>48.74</ele>
        <time>2023-05-19T11:23:32.098Z</time>
      </trkpt>
      <trkpt lat="50.55896" lon="3.35226">
        <ele>49.71</ele>
        <time>2023-05-19T11:23:32.383Z</time>
      </trkpt>
      <trkpt lat="50.55888" lon="3.35289">
        <ele>50.9</ele>
        <time>2023-05-19T11:23:32.674Z</time>
      </trkpt>
      <trkpt lat="50.5588" lon="3.35367">
        <ele>52.19</ele>
        <time>2023-05-19T11:23:32.973Z</time>
      </trkpt>
      <trkpt lat="50.55876" lon="3.35462">
        <ele>53.91</ele>
        <time>2023-05-19T11:23:33.282Z</time>
      </trkpt>
      <trkpt lat="50.55879" lon="3.35799">
        <ele>57.3</ele>
        <time>2023-05-19T11:23:33.625Z</time>
      </trkpt>
      <trkpt lat="50.55883" lon="3.359">
        <ele>61.8</ele>
        <time>2023-05-19T11:23:33.979Z</time>
      </trkpt>
      <trkpt lat="50.55883" lon="3.359">
        <ele>61.8</ele>
        <time>2023-05-19T11:23:34.333Z</time>
      </trkpt>
      <trkpt lat="50.55883" lon="3.359">
        <ele>61.84</ele>
        <time>2023-05-19T11:23:34.687Z</time>
      </trkpt>
      <trkpt lat="50.55883" lon="3.359">
        <ele>61.84</ele>
        <time>2023-05-19T11:23:35.041Z</time>
      </trkpt>
      <trkpt lat="50.55883" lon="3.359">
        <ele>61.85</ele>
        <time>2023-05-19T11:23:35.395Z</time>
      </trkpt>
      <trkpt lat="50.55883" lon="3.35899">
        <ele>61.85</ele>
        <time>2023-05-19T11:23:35.749Z</time>
      </trkpt>
      <trkpt lat="50.55883" lon="3.359">
        <ele>61.89</ele>
        <time>2023-05-19T11:23:36.103Z</time>
      </trkpt>
      <trkpt lat="50.55883" lon="3.35899">
        <ele>61.9</ele>
        <time>2023-05-19T11:23:36.457Z</time>
      </trkpt>
      <trkpt lat="50.55888" lon="3.36021">
        <ele>63.11</ele>
        <time>2023-05-19T11:23:36.823Z</time>
      </trkpt>
      <trkpt lat="50.55893" lon="3.36112">
        <ele>63.98</ele>
        <time>2023-05-19T11:23:37.199Z</time>
      </trkpt>
      <trkpt lat="50.55895" lon="3.36179">
        <ele>64.63</ele>
        <time>2023-05-19T11:23:37.582Z</time>
      </trkpt>
      <trkpt lat="50.55892" lon="3.36207">
        <ele>65.04</ele>
        <time>2023-05-19T11:23:37.968Z</time>
      </trkpt>
      <trkpt lat="50.55887" lon="3.36239">
        <ele>65.36</ele>
        <time>2023-05-19T11:23:38.357Z</time>
      </trkpt>
      <trkpt lat="50.55828" lon="3.36467">
        <ele>66.07</ele>
        <time>2023-05-19T11:23:38.771Z</time>
      </trkpt>
      <trkpt lat="50.55774" lon="3.36646">
        <ele>65.98</ele>
        <time>2023-05-19T11:23:39.205Z</time>
      </trkpt>
      <trkpt lat="50.55771" lon="3.36663">
        <ele>65.91</ele>
        <time>2023-05-19T11:23:39.641Z</time>
      </trkpt>
      <trkpt lat="50.55773" lon="3.36684">
        <ele>66.16</ele>
        <time>2023-05-19T11:23:40.079Z</time>
      </trkpt>
      <trkpt lat="50.55779" lon="3.36697">
        <ele>66.56</ele>
        <time>2023-05-19T11:23:40.519Z</time>
      </trkpt>
      <trkpt lat="50.55874" lon="3.36834">
        <ele>67.5</ele>
        <time>2023-05-19T11:23:40.979Z</time>
      </trkpt>
      <trkpt lat="50.55882" lon="3.36841">
        <ele>67.85</ele>
        <time>2023-05-19T11:23:41.441Z</time>
      </trkpt>
      <trkpt lat="50.55894" lon="3.36844">
        <ele>68.13</ele>
        <time>2023-05-19T11:23:41.905Z</time>
      </trkpt>
      <trkpt lat="50.559" lon="3.36848">
        <ele>68.19</ele>
        <time>2023-05-19T11:23:42.370Z</time>
      </trkpt>
      <trkpt lat="50.55908" lon="3.36848">
        <ele>68.06</ele>
        <time>2023-05-19T11:23:42.836Z</time>
      </trkpt>
      <trkpt lat="50.55917" lon="3.36852">
        <ele>67.52</ele>
        <time>2023-05-19T11:23:43.304Z</time>
      </trkpt>
      <trkpt lat="50.56145" lon="3.37169">
        <ele>65.53</ele>
        <time>2023-05-19T11:23:43.820Z</time>
      </trkpt>
      <trkpt lat="50.56145" lon="3.3717">
        <ele>65.53</ele>
        <time>2023-05-19T11:23:44.337Z</time>
      </trkpt>
      <trkpt lat="50.56145" lon="3.3717">
        <ele>65.53</ele>
        <time>2023-05-19T11:23:44.854Z</time>
      </trkpt>
      <trkpt lat="50.56145" lon="3.3717">
        <ele>65.53</ele>
        <time>2023-05-19T11:23:45.371Z</time>
      </trkpt>
      <trkpt lat="50.56145" lon="3.3717">
        <ele>65.53</ele>
        <time>2023-05-19T11:23:45.888Z</time>
      </trkpt>
      <trkpt lat="50.56187" lon="3.37229">
        <ele>65.44</ele>
        <time>2023-05-19T11:23:46.414Z</time>
      </trkpt>
      <trkpt lat="50.56199" lon="3.3725">
        <ele>65.44</ele>
        <time>2023-05-19T11:23:46.943Z</time>
      </trkpt>
      <trkpt lat="50.56206" lon="3.3727">
        <ele>65.62</ele>
        <time>2023-05-19T11:23:47.474Z</time>
      </trkpt>
      <trkpt lat="50.56213" lon="3.37334">
        <ele>65.63</ele>
        <time>2023-05-19T11:23:48.012Z</time>
      </trkpt>
      <trkpt lat="50.56216" lon="3.37349">
        <ele>65.23</ele>
        <time>2023-05-19T11:23:48.551Z</time>
      </trkpt>
      <trkpt lat="50.56221" lon="3.37356">
        <ele>64.48</ele>
        <time>2023-05-19T11:23:49.091Z</time>
      </trkpt>
      <trkpt lat="50.56239" lon="3.37368">
        <ele>63.39</ele>
        <time>2023-05-19T11:23:49.634Z</time>
      </trkpt>
      <trkpt lat="50.56193" lon="3.37455">
        <ele>61.83</ele>
        <time>2023-05-19T11:23:50.189Z</time>
      </trkpt>
      <trkpt lat="50.56126" lon="3.37544">
        <ele>59.03</ele>
        <time>2023-05-19T11:23:50.758Z</time>
      </trkpt>
      <trkpt lat="50.55896" lon="3.37821">
        <ele>54.99</ele>
        <time>2023-05-19T11:23:51.373Z</time>
      </trkpt>
      <trkpt lat="50.55869" lon="3.37866">
        <ele>52.51</ele>
        <time>2023-05-19T11:23:51.995Z</time>
      </trkpt>
      <trkpt lat="50.5584" lon="3.37928">
        <ele>50.28</ele>
        <time>2023-05-19T11:23:52.625Z</time>
      </trkpt>
      <trkpt lat="50.55812" lon="3.37998">
        <ele>48.34</ele>
        <time>2023-05-19T11:23:53.263Z</time>
      </trkpt>
      <trkpt lat="50.55776" lon="3.38065">
        <ele>46.18</ele>
        <time>2023-05-19T11:23:53.910Z</time>
      </trkpt>
      <trkpt lat="50.55737" lon="3.38139">
        <ele>44.64</ele>
        <time>2023-05-19T11:23:54.567Z</time>
      </trkpt>
      <trkpt lat="50.5568" lon="3.38243">
        <ele>43.27</ele>
        <time>2023-05-19T11:23:55.238Z</time>
      </trkpt>
      <trkpt lat="50.55646" lon="3.38302">
        <ele>42.39</ele>
        <time>2023-05-19T11:23:55.917Z</time>
      </trkpt>
      <trkpt lat="50.5564" lon="3.38314">
        <ele>42.07</ele>
        <time>2023-05-19T11:23:56.597Z</time>
      </trkpt>
      <trkpt lat="50.5564" lon="3.38314">
        <ele>42.07</ele>
        <time>2023-05-19T11:23:57.277Z</time>
      </trkpt>
      <trkpt lat="50.5564" lon="3.38316">
        <ele>42.03</ele>
        <time>2023-05-19T11:23:57.958Z</time>
      </trkpt>
      <trkpt lat="50.5564" lon="3.38316">
        <ele>42.03</ele>
        <time>2023-05-19T11:23:58.639Z</time>
      </trkpt>
      <trkpt lat="50.5564" lon="3.38316">
        <ele>42.26</ele>
        <time>2023-05-19T11:23:59.320Z</time>
      </trkpt>
      <trkpt lat="50.55624" lon="3.38348">
        <ele>41.47</ele>
        <time>2023-05-19T11:24:00.005Z</time>
      </trkpt>
      <trkpt lat="50.55624" lon="3.38348">
        <ele>40.73</ele>
        <time>2023-05-19T11:24:00.690Z</time>
      </trkpt>
      <trkpt lat="50.55594" lon="3.3841">
        <ele>39.28</ele>
        <time>2023-05-19T11:24:01.383Z</time>
      </trkpt>
      <trkpt lat="50.55503" lon="3.38637">
        <ele>37.84</ele>
        <time>2023-05-19T11:24:02.103Z</time>
      </trkpt>
      <trkpt lat="50.55461" lon="3.38747">
        <ele>37.03</ele>
        <time>2023-05-19T11:24:02.836Z</time>
      </trkpt>
      <trkpt lat="50.55355" lon="3.38973">
        <ele>35.97</ele>
        <time>2023-05-19T11:24:03.598Z</time>
      </trkpt>
      <trkpt lat="50.55343" lon="3.38997">
        <ele>35.25</ele>
        <time>2023-05-19T11:24:04.363Z</time>
      </trkpt>
      <trkpt lat="50.5534" lon="3.39007">
        <ele>34.69</ele>
        <time>2023-05-19T11:24:05.129Z</time>
      </trkpt>
      <trkpt lat="50.55337" lon="3.39011">
        <ele>34.22</ele>
        <time>2023-05-19T11:24:05.896Z</time>
      </trkpt>
      <trkpt lat="50.55326" lon="3.3903">
        <ele>33.72</ele>
        <time>2023-05-19T11:24:06.665Z</time>
      </trkpt>
      <trkpt lat="50.55317" lon="3.39038">
        <ele>33.3</ele>
        <time>2023-05-19T11:24:07.436Z</time>
      </trkpt>
      <trkpt lat="50.55312" lon="3.39036">
        <ele>33.02</ele>
        <time>2023-05-19T11:24:08.208Z</time>
      </trkpt>
      <trkpt lat="50.55307" lon="3.3904">
        <ele>32.85</ele>
        <time>2023-05-19T11:24:08.981Z</time>
      </trkpt>
      <trkpt lat="50.55306" lon="3.39051">
        <ele>32.86</ele>
        <time>2023-05-19T11:24:09.755Z</time>
      </trkpt>
      <trkpt lat="50.55311" lon="3.39058">
        <ele>33.06</ele>
        <time>2023-05-19T11:24:10.530Z</time>
      </trkpt>
      <trkpt lat="50.55307" lon="3.39087">
        <ele>33.4</ele>
        <time>2023-05-19T11:24:11.308Z</time>
      </trkpt>
      <trkpt lat="50.55257" lon="3.39262">
        <ele>34.12</ele>
        <time>2023-05-19T11:24:12.105Z</time>
      </trkpt>
      <trkpt lat="50.55243" lon="3.39295">
        <ele>35.07</ele>
        <time>2023-05-19T11:24:12.906Z</time>
      </trkpt>
      <trkpt lat="50.55107" lon="3.3951">
        <ele>35.71</ele>
        <time>2023-05-19T11:24:13.738Z</time>
      </trkpt>
      <trkpt lat="50.55107" lon="3.3951">
        <ele>35.72</ele>
        <time>2023-05-19T11:24:14.570Z</time>
      </trkpt>
      <trkpt lat="50.55106" lon="3.39511">
        <ele>35.73</ele>
        <time>2023-05-19T11:24:15.403Z</time>
      </trkpt>
      <trkpt lat="50.55107" lon="3.39511">
        <ele>35.74</ele>
        <time>2023-05-19T11:24:16.236Z</time>
      </trkpt>
      <trkpt lat="50.55058" lon="3.39587">
        <ele>35.16</ele>
        <time>2023-05-19T11:24:17.080Z</time>
      </trkpt>
      <trkpt lat="50.55043" lon="3.39618">
        <ele>34.7</ele>
        <time>2023-05-19T11:24:17.928Z</time>
      </trkpt>
      <trkpt lat="50.55031" lon="3.3965">
        <ele>34.52</ele>
        <time>2023-05-19T11:24:18.779Z</time>
      </trkpt>
      <trkpt lat="50.55017" lon="3.39699">
        <ele>34.35</ele>
        <time>2023-05-19T11:24:19.636Z</time>
      </trkpt>
      <trkpt lat="50.55012" lon="3.39719">
        <ele>34.2</ele>
        <time>2023-05-19T11:24:20.495Z</time>
      </trkpt>
      <trkpt lat="50.55149" lon="3.39847">
        <ele>33.96</ele>
        <time>2023-05-19T11:24:21.379Z</time>
      </trkpt>
      <trkpt lat="50.55351" lon="3.40034">
        <ele>33.46</ele>
        <time>2023-05-19T11:24:22.301Z</time>
      </trkpt>
      <trkpt lat="50.55372" lon="3.40064">
        <ele>33.41</ele>
        <time>2023-05-19T11:24:23.228Z</time>
      </trkpt>
      <trkpt lat="50.55396" lon="3.40037">
        <ele>33.6</ele>
        <time>2023-05-19T11:24:24.159Z</time>
      </trkpt>
      <trkpt lat="50.55413" lon="3.40037">
        <ele>33.85</ele>
        <time>2023-05-19T11:24:25.093Z</time>
      </trkpt>
      <trkpt lat="50.55516" lon="3.40117">
        <ele>35.13</ele>
        <time>2023-05-19T11:24:26.045Z</time>
      </trkpt>
      <trkpt lat="50.55533" lon="3.40141">
        <ele>35.41</ele>
        <time>2023-05-19T11:24:27.001Z</time>
      </trkpt>
      <trkpt lat="50.55519" lon="3.40172">
        <ele>35.19</ele>
        <time>2023-05-19T11:24:27.961Z</time>
      </trkpt>
      <trkpt lat="50.55477" lon="3.40283">
        <ele>34.36</ele>
        <time>2023-05-19T11:24:28.934Z</time>
      </trkpt>
      <trkpt lat="50.55454" lon="3.40384">
        <ele>33.21</ele>
        <time>2023-05-19T11:24:29.918Z</time>
      </trkpt>
      <trkpt lat="50.55438" lon="3.40459">
        <ele>32.15</ele>
        <time>2023-05-19T11:24:30.910Z</time>
      </trkpt>
      <trkpt lat="50.55426" lon="3.40533">
        <ele>31.18</ele>
        <time>2023-05-19T11:24:31.910Z</time>
      </trkpt>
      <trkpt lat="50.55423" lon="3.40635">
        <ele>30</ele>
        <time>2023-05-19T11:24:32.920Z</time>
      </trkpt>
      <trkpt lat="50.55423" lon="3.40685">
        <ele>29.44</ele>
        <time>2023-05-19T11:24:33.935Z</time>
      </trkpt>
      <trkpt lat="50.5544" lon="3.40777">
        <ele>29.38</ele>
        <time>2023-05-19T11:24:34.960Z</time>
      </trkpt>
      <trkpt lat="50.55459" lon="3.40862">
        <ele>29.86</ele>
        <time>2023-05-19T11:24:35.994Z</time>
      </trkpt>
      <trkpt lat="50.55491" lon="3.40865">
        <ele>31.04</ele>
        <time>2023-05-19T11:24:37.034Z</time>
      </trkpt>
      <trkpt lat="50.55797" lon="3.40766">
        <ele>34.23</ele>
        <time>2023-05-19T11:24:38.124Z</time>
      </trkpt>
      <trkpt lat="50.55872" lon="3.40738">
        <ele>36.03</ele>
        <time>2023-05-19T11:24:39.226Z</time>
      </trkpt>
      <trkpt lat="50.55926" lon="3.40716">
        <ele>37.75</ele>
        <time>2023-05-19T11:24:40.337Z</time>
      </trkpt>
      <trkpt lat="50.55961" lon="3.40698">
        <ele>39.21</ele>
        <time>2023-05-19T11:24:41.454Z</time>
      </trkpt>
      <trkpt lat="50.55961" lon="3.40698">
        <ele>40.41</ele>
        <time>2023-05-19T11:24:42.571Z</time>
      </trkpt>
      <trkpt lat="50.56017" lon="3.40676">
        <ele>41.59</ele>
        <time>2023-05-19T11:24:43.697Z</time>
      </trkpt>
      <trkpt lat="50.56024" lon="3.40673">
        <ele>42.83</ele>
        <time>2023-05-19T11:24:44.824Z</time>
      </trkpt>
      <trkpt lat="50.56024" lon="3.40673">
        <ele>44.1</ele>
        <time>2023-05-19T11:24:45.951Z</time>
      </trkpt>
      <trkpt lat="50.56171" lon="3.40617">
        <ele>46.35</ele>
        <time>2023-05-19T11:24:47.102Z</time>
      </trkpt>
      <trkpt lat="50.5625" lon="3.4059">
        <ele>48.11</ele>
        <time>2023-05-19T11:24:48.266Z</time>
      </trkpt>
      <trkpt lat="50.56313" lon="3.40575">
        <ele>50.46</ele>
        <time>2023-05-19T11:24:49.441Z</time>
      </trkpt>
      <trkpt lat="50.5635" lon="3.40796">
        <ele>53.04</ele>
        <time>2023-05-19T11:24:50.639Z</time>
      </trkpt>
      <trkpt lat="50.5635" lon="3.40795">
        <ele>53.05</ele>
        <time>2023-05-19T11:24:51.837Z</time>
      </trkpt>
      <trkpt lat="50.5635" lon="3.40798">
        <ele>53.1</ele>
        <time>2023-05-19T11:24:53.035Z</time>
      </trkpt>
      <trkpt lat="50.5635" lon="3.40798">
        <ele>53.11</ele>
        <time>2023-05-19T11:24:54.233Z</time>
      </trkpt>
      <trkpt lat="50.56355" lon="3.40823">
        <ele>55.91</ele>
        <time>2023-05-19T11:24:55.434Z</time>
      </trkpt>
      <trkpt lat="50.56388" lon="3.41026">
        <ele>58.03</ele>
        <time>2023-05-19T11:24:56.656Z</time>
      </trkpt>
      <trkpt lat="50.56388" lon="3.41025">
        <ele>58.04</ele>
        <time>2023-05-19T11:24:57.878Z</time>
      </trkpt>
      <trkpt lat="50.56389" lon="3.41029">
        <ele>58.1</ele>
        <time>2023-05-19T11:24:59.101Z</time>
      </trkpt>
      <trkpt lat="50.56389" lon="3.41029">
        <ele>58.11</ele>
        <time>2023-05-19T11:25:00.324Z</time>
      </trkpt>
      <trkpt lat="50.56389" lon="3.41029">
        <ele>59.81</ele>
        <time>2023-05-19T11:25:01.547Z</time>
      </trkpt>
      <trkpt lat="50.56389" lon="3.41029">
        <ele>60.66</ele>
        <time>2023-05-19T11:25:02.770Z</time>
      </trkpt>
      <trkpt lat="50.56415" lon="3.41183">
        <ele>60.57</ele>
        <time>2023-05-19T11:25:04.009Z</time>
      </trkpt>
      <trkpt lat="50.56415" lon="3.41183">
        <ele>60.28</ele>
        <time>2023-05-19T11:25:05.248Z</time>
      </trkpt>
      <trkpt lat="50.56421" lon="3.41208">
        <ele>59.93</ele>
        <time>2023-05-19T11:25:06.490Z</time>
      </trkpt>
      <trkpt lat="50.56555" lon="3.41594">
        <ele>58.89</ele>
        <time>2023-05-19T11:25:07.777Z</time>
      </trkpt>
      <trkpt lat="50.56527" lon="3.41607">
        <ele>58.12</ele>
        <time>2023-05-19T11:25:09.068Z</time>
      </trkpt>
      <trkpt lat="50.565" lon="3.41605">
        <ele>57.24</ele>
        <time>2023-05-19T11:25:10.364Z</time>
      </trkpt>
      <trkpt lat="50.56433" lon="3.41585">
        <ele>55.88</ele>
        <time>2023-05-19T11:25:11.671Z</time>
      </trkpt>
      <trkpt lat="50.5641" lon="3.4158">
        <ele>54.66</ele>
        <time>2023-05-19T11:25:12.981Z</time>
      </trkpt>
      <trkpt lat="50.56326" lon="3.41588">
        <ele>53.08</ele>
        <time>2023-05-19T11:25:14.305Z</time>
      </trkpt>
      <trkpt lat="50.56297" lon="3.41595">
        <ele>51.61</ele>
        <time>2023-05-19T11:25:15.634Z</time>
      </trkpt>
      <trkpt lat="50.56279" lon="3.41605">
        <ele>50.19</ele>
        <time>2023-05-19T11:25:16.966Z</time>
      </trkpt>
      <trkpt lat="50.56257" lon="3.41621">
        <ele>48.53</ele>
        <time>2023-05-19T11:25:18.302Z</time>
      </trkpt>
      <trkpt lat="50.56233" lon="3.41642">
        <ele>46.78</ele>
        <time>2023-05-19T11:25:19.642Z</time>
      </trkpt>
      <trkpt lat="50.56212" lon="3.41651">
        <ele>45.18</ele>
        <time>2023-05-19T11:25:20.985Z</time>
      </trkpt>
      <trkpt lat="50.56199" lon="3.41655">
        <ele>43.58</ele>
        <time>2023-05-19T11:25:22.331Z</time>
      </trkpt>
      <trkpt lat="50.56175" lon="3.41659">
        <ele>42.08</ele>
        <time>2023-05-19T11:25:23.680Z</time>
      </trkpt>
      <trkpt lat="50.56158" lon="3.41666">
        <ele>40.63</ele>
        <time>2023-05-19T11:25:25.032Z</time>
      </trkpt>
      <trkpt lat="50.56051" lon="3.41747">
        <ele>38.72</ele>
        <time>2023-05-19T11:25:26.403Z</time>
      </trkpt>
      <trkpt lat="50.56039" lon="3.41758">
        <ele>37.13</ele>
        <time>2023-05-19T11:25:27.777Z</time>
      </trkpt>
      <trkpt lat="50.56029" lon="3.41772">
        <ele>35.63</ele>
        <time>2023-05-19T11:25:29.153Z</time>
      </trkpt>
      <trkpt lat="50.56023" lon="3.41783">
        <ele>34.2</ele>
        <time>2023-05-19T11:25:30.530Z</time>
      </trkpt>
      <trkpt lat="50.56015" lon="3.41814">
        <ele>32.8</ele>
        <time>2023-05-19T11:25:31.911Z</time>
      </trkpt>
      <trkpt lat="50.55999" lon="3.42122">
        <ele>31.11</ele>
        <time>2023-05-19T11:25:33.323Z</time>
      </trkpt>
      <trkpt lat="50.56" lon="3.42214">
        <ele>29.95</ele>
        <time>2023-05-19T11:25:34.744Z</time>
      </trkpt>
      <trkpt lat="50.55989" lon="3.42317">
        <ele>29.45</ele>
        <time>2023-05-19T11:25:36.176Z</time>
      </trkpt>
      <trkpt lat="50.55983" lon="3.42332">
        <ele>28.68</ele>
        <time>2023-05-19T11:25:37.610Z</time>
      </trkpt>
      <trkpt lat="50.55975" lon="3.42352">
        <ele>27.92</ele>
        <time>2023-05-19T11:25:39.046Z</time>
      </trkpt>
      <trkpt lat="50.55958" lon="3.42367">
        <ele>27.16</ele>
        <time>2023-05-19T11:25:40.485Z</time>
      </trkpt>
      <trkpt lat="50.55947" lon="3.42382">
        <ele>26.77</ele>
        <time>2023-05-19T11:25:41.927Z</time>
      </trkpt>
      <trkpt lat="50.55947" lon="3.42382">
        <ele>26.48</ele>
        <time>2023-05-19T11:25:43.369Z</time>
      </trkpt>
      <trkpt lat="50.55946" lon="3.42427">
        <ele>26.46</ele>
        <time>2023-05-19T11:25:44.815Z</time>
      </trkpt>
      <trkpt lat="50.55941" lon="3.42474">
        <ele>26.29</ele>
        <time>2023-05-19T11:25:46.266Z</time>
      </trkpt>
      <trkpt lat="50.55946" lon="3.42493">
        <ele>26.19</ele>
        <time>2023-05-19T11:25:47.719Z</time>
      </trkpt>
      <trkpt lat="50.5595" lon="3.42503">
        <ele>26.19</ele>
        <time>2023-05-19T11:25:49.174Z</time>
      </trkpt>
      <trkpt lat="50.55951" lon="3.42511">
        <ele>26.23</ele>
        <time>2023-05-19T11:25:50.629Z</time>
      </trkpt>
      <trkpt lat="50.55946" lon="3.42516">
        <ele>26.27</ele>
        <time>2023-05-19T11:25:52.085Z</time>
      </trkpt>
      <trkpt lat="50.5594" lon="3.42528">
        <ele>26.34</ele>
        <time>2023-05-19T11:25:53.543Z</time>
      </trkpt>
      <trkpt lat="50.55937" lon="3.42548">
        <ele>26.41</ele>
        <time>2023-05-19T11:25:55.003Z</time>
      </trkpt>
      <trkpt lat="50.55937" lon="3.4256">
        <ele>26.48</ele>
        <time>2023-05-19T11:25:56.464Z</time>
      </trkpt>
      <trkpt lat="50.55939" lon="3.42567">
        <ele>26.55</ele>
        <time>2023-05-19T11:25:57.926Z</time>
      </trkpt>
      <trkpt lat="50.55943" lon="3.42576">
        <ele>26.61</ele>
        <time>2023-05-19T11:25:59.389Z</time>
      </trkpt>
      <trkpt lat="50.55948" lon="3.42586">
        <ele>26.66</ele>
        <time>2023-05-19T11:26:00.853Z</time>
      </trkpt>
      <trkpt lat="50.55955" lon="3.42592">
        <ele>26.69</ele>
        <time>2023-05-19T11:26:02.319Z</time>
      </trkpt>
      <trkpt lat="50.55963" lon="3.42595">
        <ele>26.68</ele>
        <time>2023-05-19T11:26:03.786Z</time>
      </trkpt>
      <trkpt lat="50.55973" lon="3.42594">
        <ele>26.61</ele>
        <time>2023-05-19T11:26:05.254Z</time>
      </trkpt>
      <trkpt lat="50.55979" lon="3.42591">
        <ele>26.42</ele>
        <time>2023-05-19T11:26:06.724Z</time>
      </trkpt>
      <trkpt lat="50.55982" lon="3.42595">
        <ele>26.15</ele>
        <time>2023-05-19T11:26:08.194Z</time>
      </trkpt>
      <trkpt lat="50.5599" lon="3.4262">
        <ele>25.75</ele>
        <time>2023-05-19T11:26:09.667Z</time>
      </trkpt>
      <trkpt lat="50.5599" lon="3.4262">
        <ele>25.33</ele>
        <time>2023-05-19T11:26:11.140Z</time>
      </trkpt>
      <trkpt lat="50.55989" lon="3.42629">
        <ele>24.81</ele>
        <time>2023-05-19T11:26:12.614Z</time>
      </trkpt>
      <trkpt lat="50.55932" lon="3.42685">
        <ele>24.03</ele>
        <time>2023-05-19T11:26:14.099Z</time>
      </trkpt>
      <trkpt lat="50.55924" lon="3.42705">
        <ele>23.43</ele>
        <time>2023-05-19T11:26:15.586Z</time>
      </trkpt>
      <trkpt lat="50.55921" lon="3.42723">
        <ele>22.81</ele>
        <time>2023-05-19T11:26:17.075Z</time>
      </trkpt>
      <trkpt lat="50.55925" lon="3.42775">
        <ele>22.04</ele>
        <time>2023-05-19T11:26:18.569Z</time>
      </trkpt>
      <trkpt lat="50.55922" lon="3.42914">
        <ele>21.33</ele>
        <time>2023-05-19T11:26:20.078Z</time>
      </trkpt>
      <trkpt lat="50.55919" lon="3.42929">
        <ele>20.79</ele>
        <time>2023-05-19T11:26:21.588Z</time>
      </trkpt>
      <trkpt lat="50.55916" lon="3.4294">
        <ele>20.31</ele>
        <time>2023-05-19T11:26:23.099Z</time>
      </trkpt>
      <trkpt lat="50.55895" lon="3.42968">
        <ele>19.84</ele>
        <time>2023-05-19T11:26:24.615Z</time>
      </trkpt>
      <trkpt lat="50.55884" lon="3.42978">
        <ele>19.56</ele>
        <time>2023-05-19T11:26:26.133Z</time>
      </trkpt>
      <trkpt lat="50.55894" lon="3.43012">
        <ele>19.39</ele>
        <time>2023-05-19T11:26:27.655Z</time>
      </trkpt>
      <trkpt lat="50.55909" lon="3.43041">
        <ele>19.37</ele>
        <time>2023-05-19T11:26:29.180Z</time>
      </trkpt>
      <trkpt lat="50.55966" lon="3.43148">
        <ele>19.4</ele>
        <time>2023-05-19T11:26:30.720Z</time>
      </trkpt>
      <trkpt lat="50.55966" lon="3.43148">
        <ele>19.52</ele>
        <time>2023-05-19T11:26:32.260Z</time>
      </trkpt>
      <trkpt lat="50.56006" lon="3.43224">
        <ele>19.77</ele>
        <time>2023-05-19T11:26:33.810Z</time>
      </trkpt>
      <trkpt lat="50.56082" lon="3.43394">
        <ele>20.09</ele>
        <time>2023-05-19T11:26:35.381Z</time>
      </trkpt>
      <trkpt lat="50.56206" lon="3.43653">
        <ele>21.05</ele>
        <time>2023-05-19T11:26:36.985Z</time>
      </trkpt>
      <trkpt lat="50.56255" lon="3.43748">
        <ele>20.56</ele>
        <time>2023-05-19T11:26:38.601Z</time>
      </trkpt>
      <trkpt lat="50.56278" lon="3.43786">
        <ele>20.46</ele>
        <time>2023-05-19T11:26:40.223Z</time>
      </trkpt>
      <trkpt lat="50.56322" lon="3.43846">
        <ele>20.9</ele>
        <time>2023-05-19T11:26:41.854Z</time>
      </trkpt>
      <trkpt lat="50.56322" lon="3.43846">
        <ele>20.91</ele>
        <time>2023-05-19T11:26:43.485Z</time>
      </trkpt>
      <trkpt lat="50.56325" lon="3.4385">
        <ele>20.94</ele>
        <time>2023-05-19T11:26:45.117Z</time>
      </trkpt>
      <trkpt lat="50.56325" lon="3.4385">
        <ele>20.95</ele>
        <time>2023-05-19T11:26:46.749Z</time>
      </trkpt>
      <trkpt lat="50.5628" lon="3.43789">
        <ele>20.93</ele>
        <time>2023-05-19T11:26:48.390Z</time>
      </trkpt>
      <trkpt lat="50.5628" lon="3.43789">
        <ele>20.93</ele>
        <time>2023-05-19T11:26:50.031Z</time>
      </trkpt>
      <trkpt lat="50.56278" lon="3.43786">
        <ele>20.93</ele>
        <time>2023-05-19T11:26:51.673Z</time>
      </trkpt>
      <trkpt lat="50.56278" lon="3.43785">
        <ele>20.77</ele>
        <time>2023-05-19T11:26:53.315Z</time>
      </trkpt>
      <trkpt lat="50.56278" lon="3.43785">
        <ele>20.77</ele>
        <time>2023-05-19T11:26:54.957Z</time>
      </trkpt>
      <trkpt lat="50.56278" lon="3.43785">
        <ele>20.68</ele>
        <time>2023-05-19T11:26:56.599Z</time>
      </trkpt>
      <trkpt lat="50.56278" lon="3.43785">
        <ele>20.23</ele>
        <time>2023-05-19T11:26:58.241Z</time>
      </trkpt>
      <trkpt lat="50.56255" lon="3.43748">
        <ele>20.5</ele>
        <time>2023-05-19T11:26:59.888Z</time>
      </trkpt>
      <trkpt lat="50.56206" lon="3.43653">
        <ele>21.1</ele>
        <time>2023-05-19T11:27:01.547Z</time>
      </trkpt>
      <trkpt lat="50.56082" lon="3.43394">
        <ele>20.06</ele>
        <time>2023-05-19T11:27:03.240Z</time>
      </trkpt>
      <trkpt lat="50.56006" lon="3.43224">
        <ele>19.68</ele>
        <time>2023-05-19T11:27:04.954Z</time>
      </trkpt>
      <trkpt lat="50.55966" lon="3.43148">
        <ele>19.37</ele>
        <time>2023-05-19T11:27:06.678Z</time>
      </trkpt>
      <trkpt lat="50.55966" lon="3.43148">
        <ele>19.2</ele>
        <time>2023-05-19T11:27:08.402Z</time>
      </trkpt>
      <trkpt lat="50.55909" lon="3.43041">
        <ele>19.12</ele>
        <time>2023-05-19T11:27:10.140Z</time>
      </trkpt>
      <trkpt lat="50.55894" lon="3.43012">
        <ele>19.09</ele>
        <time>2023-05-19T11:27:11.882Z</time>
      </trkpt>
      <trkpt lat="50.55884" lon="3.42978">
        <ele>19.23</ele>
        <time>2023-05-19T11:27:13.628Z</time>
      </trkpt>
      <trkpt lat="50.55895" lon="3.42968">
        <ele>19.49</ele>
        <time>2023-05-19T11:27:15.376Z</time>
      </trkpt>
      <trkpt lat="50.55916" lon="3.4294">
        <ele>19.97</ele>
        <time>2023-05-19T11:27:17.128Z</time>
      </trkpt>
      <trkpt lat="50.55919" lon="3.42929">
        <ele>20.45</ele>
        <time>2023-05-19T11:27:18.881Z</time>
      </trkpt>
      <trkpt lat="50.55922" lon="3.42914">
        <ele>21.03</ele>
        <time>2023-05-19T11:27:20.636Z</time>
      </trkpt>
      <trkpt lat="50.55925" lon="3.42775">
        <ele>21.79</ele>
        <time>2023-05-19T11:27:22.405Z</time>
      </trkpt>
      <trkpt lat="50.55921" lon="3.42723">
        <ele>22.63</ele>
        <time>2023-05-19T11:27:24.180Z</time>
      </trkpt>
      <trkpt lat="50.55924" lon="3.42705">
        <ele>23.34</ele>
        <time>2023-05-19T11:27:25.957Z</time>
      </trkpt>
      <trkpt lat="50.55932" lon="3.42685">
        <ele>24.04</ele>
        <time>2023-05-19T11:27:27.736Z</time>
      </trkpt>
      <trkpt lat="50.55989" lon="3.42629">
        <ele>24.95</ele>
        <time>2023-05-19T11:27:29.526Z</time>
      </trkpt>
      <trkpt lat="50.5599" lon="3.4262">
        <ele>25.6</ele>
        <time>2023-05-19T11:27:31.317Z</time>
      </trkpt>
      <trkpt lat="50.5599" lon="3.4262">
        <ele>26.15</ele>
        <time>2023-05-19T11:27:33.108Z</time>
      </trkpt>
      <trkpt lat="50.55982" lon="3.42595">
        <ele>26.71</ele>
        <time>2023-05-19T11:27:34.901Z</time>
      </trkpt>
      <trkpt lat="50.55982" lon="3.42588">
        <ele>27.13</ele>
        <time>2023-05-19T11:27:36.695Z</time>
      </trkpt>
      <trkpt lat="50.55978" lon="3.42565">
        <ele>27.55</ele>
        <time>2023-05-19T11:27:38.491Z</time>
      </trkpt>
      <trkpt lat="50.55981" lon="3.42553">
        <ele>27.85</ele>
        <time>2023-05-19T11:27:40.289Z</time>
      </trkpt>
      <trkpt lat="50.55982" lon="3.42545">
        <ele>28.02</ele>
        <time>2023-05-19T11:27:42.088Z</time>
      </trkpt>
      <trkpt lat="50.55978" lon="3.4253">
        <ele>28.12</ele>
        <time>2023-05-19T11:27:43.888Z</time>
      </trkpt>
      <trkpt lat="50.55974" lon="3.42525">
        <ele>28.15</ele>
        <time>2023-05-19T11:27:45.689Z</time>
      </trkpt>
      <trkpt lat="50.5597" lon="3.42522">
        <ele>28.11</ele>
        <time>2023-05-19T11:27:47.491Z</time>
      </trkpt>
      <trkpt lat="50.55963" lon="3.42521">
        <ele>28.02</ele>
        <time>2023-05-19T11:27:49.294Z</time>
      </trkpt>
      <trkpt lat="50.55955" lon="3.42514">
        <ele>27.9</ele>
        <time>2023-05-19T11:27:51.098Z</time>
      </trkpt>
      <trkpt lat="50.55953" lon="3.42508">
        <ele>27.8</ele>
        <time>2023-05-19T11:27:52.903Z</time>
      </trkpt>
      <trkpt lat="50.5595" lon="3.42503">
        <ele>27.7</ele>
        <time>2023-05-19T11:27:54.709Z</time>
      </trkpt>
      <trkpt lat="50.55946" lon="3.42493">
        <ele>27.63</ele>
        <time>2023-05-19T11:27:56.516Z</time>
      </trkpt>
      <trkpt lat="50.55941" lon="3.42474">
        <ele>27.65</ele>
        <time>2023-05-19T11:27:58.325Z</time>
      </trkpt>
      <trkpt lat="50.55946" lon="3.42427">
        <ele>27.69</ele>
        <time>2023-05-19T11:28:00.139Z</time>
      </trkpt>
      <trkpt lat="50.55947" lon="3.42382">
        <ele>27.53</ele>
        <time>2023-05-19T11:28:01.958Z</time>
      </trkpt>
      <trkpt lat="50.55947" lon="3.42382">
        <ele>27.78</ele>
        <time>2023-05-19T11:28:03.777Z</time>
      </trkpt>
      <trkpt lat="50.55958" lon="3.42367">
        <ele>28.21</ele>
        <time>2023-05-19T11:28:05.598Z</time>
      </trkpt>
      <trkpt lat="50.55975" lon="3.42352">
        <ele>29.1</ele>
        <time>2023-05-19T11:28:07.422Z</time>
      </trkpt>
      <trkpt lat="50.55983" lon="3.42332">
        <ele>29.74</ele>
        <time>2023-05-19T11:28:09.248Z</time>
      </trkpt>
      <trkpt lat="50.55989" lon="3.42317">
        <ele>30.1</ele>
        <time>2023-05-19T11:28:11.076Z</time>
      </trkpt>
      <trkpt lat="50.55991" lon="3.42294">
        <ele>30.17</ele>
        <time>2023-05-19T11:28:12.907Z</time>
      </trkpt>
      <trkpt lat="50.55991" lon="3.42294">
        <ele>30.18</ele>
        <time>2023-05-19T11:28:14.738Z</time>
      </trkpt>
      <trkpt lat="50.55992" lon="3.42289">
        <ele>30.2</ele>
        <time>2023-05-19T11:28:16.569Z</time>
      </trkpt>
      <trkpt lat="50.55992" lon="3.42289">
        <ele>30.21</ele>
        <time>2023-05-19T11:28:18.400Z</time>
      </trkpt>
      <trkpt lat="50.55989" lon="3.42317">
        <ele>30.13</ele>
        <time>2023-05-19T11:28:20.234Z</time>
      </trkpt>
      <trkpt lat="50.55983" lon="3.42332">
        <ele>29.74</ele>
        <time>2023-05-19T11:28:22.070Z</time>
      </trkpt>
      <trkpt lat="50.55975" lon="3.42352">
        <ele>29.08</ele>
        <time>2023-05-19T11:28:23.908Z</time>
      </trkpt>
      <trkpt lat="50.55958" lon="3.42367">
        <ele>28.15</ele>
        <time>2023-05-19T11:28:25.749Z</time>
      </trkpt>
      <trkpt lat="50.55947" lon="3.42382">
        <ele>27.66</ele>
        <time>2023-05-19T11:28:27.593Z</time>
      </trkpt>
      <trkpt lat="50.55947" lon="3.42382">
        <ele>27.35</ele>
        <time>2023-05-19T11:28:29.437Z</time>
      </trkpt>
      <trkpt lat="50.55946" lon="3.42427">
        <ele>27.43</ele>
        <time>2023-05-19T11:28:31.285Z</time>
      </trkpt>
      <trkpt lat="50.55941" lon="3.42474">
        <ele>27.31</ele>
        <time>2023-05-19T11:28:33.138Z</time>
      </trkpt>
      <trkpt lat="50.55946" lon="3.42493">
        <ele>27.22</ele>
        <time>2023-05-19T11:28:34.993Z</time>
      </trkpt>
      <trkpt lat="50.5595" lon="3.42503">
        <ele>27.19</ele>
        <time>2023-05-19T11:28:36.850Z</time>
      </trkpt>
      <trkpt lat="50.55951" lon="3.42511">
        <ele>27.19</ele>
        <time>2023-05-19T11:28:38.707Z</time>
      </trkpt>
      <trkpt lat="50.55946" lon="3.42516">
        <ele>27.17</ele>
        <time>2023-05-19T11:28:40.565Z</time>
      </trkpt>
      <trkpt lat="50.5594" lon="3.42528">
        <ele>27.15</ele>
        <time>2023-05-19T11:28:42.425Z</time>
      </trkpt>
      <trkpt lat="50.55937" lon="3.42548">
        <ele>27.13</ele>
        <time>2023-05-19T11:28:44.287Z</time>
      </trkpt>
      <trkpt lat="50.55937" lon="3.4256">
        <ele>27.08</ele>
        <time>2023-05-19T11:28:46.150Z</time>
      </trkpt>
      <trkpt lat="50.55939" lon="3.42567">
        <ele>27.02</ele>
        <time>2023-05-19T11:28:48.014Z</time>
      </trkpt>
      <trkpt lat="50.55943" lon="3.42576">
        <ele>26.94</ele>
        <time>2023-05-19T11:28:49.879Z</time>
      </trkpt>
      <trkpt lat="50.55948" lon="3.42586">
        <ele>26.87</ele>
        <time>2023-05-19T11:28:51.745Z</time>
      </trkpt>
      <trkpt lat="50.55955" lon="3.42592">
        <ele>26.79</ele>
        <time>2023-05-19T11:28:53.613Z</time>
      </trkpt>
      <trkpt lat="50.55963" lon="3.42595">
        <ele>26.68</ele>
        <time>2023-05-19T11:28:55.482Z</time>
      </trkpt>
      <trkpt lat="50.55973" lon="3.42594">
        <ele>26.53</ele>
        <time>2023-05-19T11:28:57.352Z</time>
      </trkpt>
      <trkpt lat="50.55979" lon="3.42591">
        <ele>26.26</ele>
        <time>2023-05-19T11:28:59.224Z</time>
      </trkpt>
      <trkpt lat="50.55982" lon="3.42595">
        <ele>25.93</ele>
        <time>2023-05-19T11:29:01.096Z</time>
      </trkpt>
      <trkpt lat="50.5599" lon="3.4262">
        <ele>25.48</ele>
        <time>2023-05-19T11:29:02.971Z</time>
      </trkpt>
      <trkpt lat="50.5599" lon="3.4262">
        <ele>25.02</ele>
        <time>2023-05-19T11:29:04.846Z</time>
      </trkpt>
      <trkpt lat="50.55989" lon="3.42629">
        <ele>24.48</ele>
        <time>2023-05-19T11:29:06.722Z</time>
      </trkpt>
      <trkpt lat="50.55932" lon="3.42685">
        <ele>23.69</ele>
        <time>2023-05-19T11:29:08.609Z</time>
      </trkpt>
      <trkpt lat="50.55924" lon="3.42705">
        <ele>23.07</ele>
        <time>2023-05-19T11:29:10.498Z</time>
      </trkpt>
      <trkpt lat="50.55921" lon="3.42723">
        <ele>22.46</ele>
        <time>2023-05-19T11:29:12.389Z</time>
      </trkpt>
      <trkpt lat="50.55925" lon="3.42775">
        <ele>21.73</ele>
        <time>2023-05-19T11:29:14.285Z</time>
      </trkpt>
      <trkpt lat="50.55922" lon="3.42914">
        <ele>21.06</ele>
        <time>2023-05-19T11:29:16.196Z</time>
      </trkpt>
      <trkpt lat="50.55919" lon="3.42929">
        <ele>20.57</ele>
        <time>2023-05-19T11:29:18.108Z</time>
      </trkpt>
      <trkpt lat="50.55916" lon="3.4294">
        <ele>20.15</ele>
        <time>2023-05-19T11:29:20.021Z</time>
      </trkpt>
      <trkpt lat="50.55895" lon="3.42968">
        <ele>19.75</ele>
        <time>2023-05-19T11:29:21.939Z</time>
      </trkpt>
      <trkpt lat="50.55884" lon="3.42978">
        <ele>19.55</ele>
        <time>2023-05-19T11:29:23.859Z</time>
      </trkpt>
      <trkpt lat="50.55894" lon="3.43012">
        <ele>19.45</ele>
        <time>2023-05-19T11:29:25.783Z</time>
      </trkpt>
      <trkpt lat="50.55909" lon="3.43041">
        <ele>19.5</ele>
        <time>2023-05-19T11:29:27.710Z</time>
      </trkpt>
      <trkpt lat="50.55966" lon="3.43148">
        <ele>19.59</ele>
        <time>2023-05-19T11:29:29.652Z</time>
      </trkpt>
      <trkpt lat="50.55966" lon="3.43148">
        <ele>19.75</ele>
        <time>2023-05-19T11:29:31.594Z</time>
      </trkpt>
      <trkpt lat="50.56006" lon="3.43224">
        <ele>19.99</ele>
        <time>2023-05-19T11:29:33.546Z</time>
      </trkpt>
      <trkpt lat="50.56082" lon="3.43394">
        <ele>20.24</ele>
        <time>2023-05-19T11:29:35.519Z</time>
      </trkpt>
      <trkpt lat="50.56206" lon="3.43653">
        <ele>21.04</ele>
        <time>2023-05-19T11:29:37.525Z</time>
      </trkpt>
      <trkpt lat="50.56255" lon="3.43748">
        <ele>20.79</ele>
        <time>2023-05-19T11:29:39.543Z</time>
      </trkpt>
      <trkpt lat="50.56278" lon="3.43786">
        <ele>20.76</ele>
        <time>2023-05-19T11:29:41.567Z</time>
      </trkpt>
      <trkpt lat="50.56352" lon="3.43888">
        <ele>21.01</ele>
        <time>2023-05-19T11:29:43.607Z</time>
      </trkpt>
      <trkpt lat="50.56405" lon="3.43944">
        <ele>21.03</ele>
        <time>2023-05-19T11:29:45.657Z</time>
      </trkpt>
      <trkpt lat="50.56429" lon="3.43963">
        <ele>21.01</ele>
        <time>2023-05-19T11:29:47.711Z</time>
      </trkpt>
      <trkpt lat="50.56447" lon="3.43975">
        <ele>20.73</ele>
        <time>2023-05-19T11:29:49.768Z</time>
      </trkpt>
      <trkpt lat="50.56534" lon="3.44018">
        <ele>20.06</ele>
        <time>2023-05-19T11:29:51.840Z</time>
      </trkpt>
      <trkpt lat="50.56534" lon="3.44018">
        <ele>19.76</ele>
        <time>2023-05-19T11:29:53.912Z</time>
      </trkpt>
      <trkpt lat="50.56583" lon="3.44056">
        <ele>19.22</ele>
        <time>2023-05-19T11:29:55.993Z</time>
      </trkpt>
      <trkpt lat="50.56586" lon="3.44058">
        <ele>19.19</ele>
        <time>2023-05-19T11:29:58.074Z</time>
      </trkpt>
      <trkpt lat="50.56603" lon="3.44072">
        <ele>17.87</ele>
        <time>2023-05-19T11:30:00.158Z</time>
      </trkpt>
      <trkpt lat="50.56615" lon="3.44086">
        <ele>17.68</ele>
        <time>2023-05-19T11:30:02.245Z</time>
      </trkpt>
      <trkpt lat="50.5663" lon="3.44094">
        <ele>17.33</ele>
        <time>2023-05-19T11:30:04.334Z</time>
      </trkpt>
      <trkpt lat="50.56641" lon="3.44101">
        <ele>16.99</ele>
        <time>2023-05-19T11:30:06.425Z</time>
      </trkpt>
      <trkpt lat="50.56665" lon="3.44103">
        <ele>16.9</ele>
        <time>2023-05-19T11:30:08.520Z</time>
      </trkpt>
      <trkpt lat="50.56723" lon="3.44109">
        <ele>16.84</ele>
        <time>2023-05-19T11:30:10.624Z</time>
      </trkpt>
      <trkpt lat="50.5673" lon="3.44113">
        <ele>16.55</ele>
        <time>2023-05-19T11:30:12.729Z</time>
      </trkpt>
      <trkpt lat="50.56742" lon="3.44127">
        <ele>16.06</ele>
        <time>2023-05-19T11:30:14.837Z</time>
      </trkpt>
      <trkpt lat="50.56742" lon="3.44127">
        <ele>15.7</ele>
        <time>2023-05-19T11:30:16.945Z</time>
      </trkpt>
      <trkpt lat="50.56751" lon="3.4415">
        <ele>15.13</ele>
        <time>2023-05-19T11:30:19.056Z</time>
      </trkpt>
      <trkpt lat="50.56749" lon="3.44177">
        <ele>14.73</ele>
        <time>2023-05-19T11:30:21.169Z</time>
      </trkpt>
      <trkpt lat="50.56749" lon="3.44177">
        <ele>14.79</ele>
        <time>2023-05-19T11:30:23.282Z</time>
      </trkpt>
      <trkpt lat="50.56741" lon="3.44282">
        <ele>15.11</ele>
        <time>2023-05-19T11:30:25.406Z</time>
      </trkpt>
      <trkpt lat="50.56739" lon="3.44333">
        <ele>16.14</ele>
        <time>2023-05-19T11:30:27.535Z</time>
      </trkpt>
      <trkpt lat="50.56741" lon="3.44365">
        <ele>16.97</ele>
        <time>2023-05-19T11:30:29.668Z</time>
      </trkpt>
      <trkpt lat="50.56747" lon="3.44403">
        <ele>17.41</ele>
        <time>2023-05-19T11:30:31.805Z</time>
      </trkpt>
      <trkpt lat="50.56747" lon="3.44403">
        <ele>17.42</ele>
        <time>2023-05-19T11:30:33.942Z</time>
      </trkpt>
      <trkpt lat="50.56748" lon="3.44409">
        <ele>17.49</ele>
        <time>2023-05-19T11:30:36.079Z</time>
      </trkpt>
      <trkpt lat="50.56748" lon="3.44409">
        <ele>17.5</ele>
        <time>2023-05-19T11:30:38.216Z</time>
      </trkpt>
      <trkpt lat="50.56748" lon="3.44409">
        <ele>19.59</ele>
        <time>2023-05-19T11:30:40.353Z</time>
      </trkpt>
      <trkpt lat="50.56754" lon="3.44448">
        <ele>19.81</ele>
        <time>2023-05-19T11:30:42.494Z</time>
      </trkpt>
      <trkpt lat="50.56751" lon="3.44475">
        <ele>20.19</ele>
        <time>2023-05-19T11:30:44.638Z</time>
      </trkpt>
      <trkpt lat="50.56751" lon="3.44475">
        <ele>20.37</ele>
        <time>2023-05-19T11:30:46.782Z</time>
      </trkpt>
      <trkpt lat="50.5675" lon="3.44494">
        <ele>20.6</ele>
        <time>2023-05-19T11:30:48.928Z</time>
      </trkpt>
      <trkpt lat="50.56751" lon="3.44505">
        <ele>20.68</ele>
        <time>2023-05-19T11:30:51.075Z</time>
      </trkpt>
      <trkpt lat="50.56758" lon="3.44531">
        <ele>20.68</ele>
        <time>2023-05-19T11:30:53.225Z</time>
      </trkpt>
      <trkpt lat="50.56764" lon="3.44531">
        <ele>20.58</ele>
        <time>2023-05-19T11:30:55.376Z</time>
      </trkpt>
      <trkpt lat="50.56771" lon="3.44529">
        <ele>20.41</ele>
        <time>2023-05-19T11:30:57.528Z</time>
      </trkpt>
      <trkpt lat="50.56808" lon="3.44501">
        <ele>20.06</ele>
        <time>2023-05-19T11:30:59.687Z</time>
      </trkpt>
      <trkpt lat="50.56832" lon="3.44486">
        <ele>19.67</ele>
        <time>2023-05-19T11:31:01.850Z</time>
      </trkpt>
      <trkpt lat="50.56832" lon="3.44486">
        <ele>19.46</ele>
        <time>2023-05-19T11:31:04.013Z</time>
      </trkpt>
      <trkpt lat="50.56851" lon="3.44472">
        <ele>19.3</ele>
        <time>2023-05-19T11:31:06.179Z</time>
      </trkpt>
      <trkpt lat="50.56851" lon="3.44472">
        <ele>19.19</ele>
        <time>2023-05-19T11:31:08.345Z</time>
      </trkpt>
      <trkpt lat="50.56874" lon="3.4445">
        <ele>19.16</ele>
        <time>2023-05-19T11:31:10.516Z</time>
      </trkpt>
      <trkpt lat="50.56874" lon="3.4445">
        <ele>19.16</ele>
        <time>2023-05-19T11:31:12.687Z</time>
      </trkpt>
      <trkpt lat="50.56886" lon="3.44439">
        <ele>19.17</ele>
        <time>2023-05-19T11:31:14.860Z</time>
      </trkpt>
      <trkpt lat="50.56893" lon="3.44434">
        <ele>19.29</ele>
        <time>2023-05-19T11:31:17.034Z</time>
      </trkpt>
      <trkpt lat="50.56916" lon="3.44427">
        <ele>19.54</ele>
        <time>2023-05-19T11:31:19.212Z</time>
      </trkpt>
      <trkpt lat="50.56944" lon="3.44418">
        <ele>19.7</ele>
        <time>2023-05-19T11:31:21.394Z</time>
      </trkpt>
      <trkpt lat="50.56976" lon="3.4441">
        <ele>19.84</ele>
        <time>2023-05-19T11:31:23.582Z</time>
      </trkpt>
      <trkpt lat="50.57037" lon="3.44381">
        <ele>20.07</ele>
        <time>2023-05-19T11:31:25.780Z</time>
      </trkpt>
      <trkpt lat="50.57047" lon="3.44376">
        <ele>20.25</ele>
        <time>2023-05-19T11:31:27.979Z</time>
      </trkpt>
      <trkpt lat="50.5707" lon="3.44371">
        <ele>20.27</ele>
        <time>2023-05-19T11:31:30.182Z</time>
      </trkpt>
      <trkpt lat="50.57126" lon="3.44365">
        <ele>20.05</ele>
        <time>2023-05-19T11:31:32.394Z</time>
      </trkpt>
      <trkpt lat="50.57151" lon="3.44365">
        <ele>19.87</ele>
        <time>2023-05-19T11:31:34.610Z</time>
      </trkpt>
      <trkpt lat="50.57151" lon="3.44365">
        <ele>19.87</ele>
        <time>2023-05-19T11:31:36.826Z</time>
      </trkpt>
      <trkpt lat="50.57154" lon="3.44365">
        <ele>19.85</ele>
        <time>2023-05-19T11:31:39.043Z</time>
      </trkpt>
      <trkpt lat="50.57154" lon="3.44365">
        <ele>19.85</ele>
        <time>2023-05-19T11:31:41.260Z</time>
      </trkpt>
      <trkpt lat="50.57183" lon="3.44365">
        <ele>18</ele>
        <time>2023-05-19T11:31:43.481Z</time>
      </trkpt>
      <trkpt lat="50.57202" lon="3.44368">
        <ele>17.59</ele>
        <time>2023-05-19T11:31:45.705Z</time>
      </trkpt>
      <trkpt lat="50.57204" lon="3.44371">
        <ele>17.28</ele>
        <time>2023-05-19T11:31:47.930Z</time>
      </trkpt>
      <trkpt lat="50.57217" lon="3.44386">
        <ele>17.04</ele>
        <time>2023-05-19T11:31:50.157Z</time>
      </trkpt>
      <trkpt lat="50.57221" lon="3.44377">
        <ele>16.86</ele>
        <time>2023-05-19T11:31:52.386Z</time>
      </trkpt>
      <trkpt lat="50.57232" lon="3.44371">
        <ele>16.73</ele>
        <time>2023-05-19T11:31:54.616Z</time>
      </trkpt>
      <trkpt lat="50.5724" lon="3.44372">
        <ele>16.67</ele>
        <time>2023-05-19T11:31:56.848Z</time>
      </trkpt>
      <trkpt lat="50.57246" lon="3.44376">
        <ele>16.68</ele>
        <time>2023-05-19T11:31:59.081Z</time>
      </trkpt>
      <trkpt lat="50.57251" lon="3.44385">
        <ele>16.77</ele>
        <time>2023-05-19T11:32:01.315Z</time>
      </trkpt>
      <trkpt lat="50.57255" lon="3.44396">
        <ele>16.98</ele>
        <time>2023-05-19T11:32:03.550Z</time>
      </trkpt>
      <trkpt lat="50.57256" lon="3.44407">
        <ele>17.36</ele>
        <time>2023-05-19T11:32:05.786Z</time>
      </trkpt>
      <trkpt lat="50.57253" lon="3.44422">
        <ele>17.91</ele>
        <time>2023-05-19T11:32:08.024Z</time>
      </trkpt>
      <trkpt lat="50.57253" lon="3.44422">
        <ele>18.59</ele>
        <time>2023-05-19T11:32:10.262Z</time>
      </trkpt>
      <trkpt lat="50.57249" lon="3.44429">
        <ele>19.49</ele>
        <time>2023-05-19T11:32:12.501Z</time>
      </trkpt>
      <trkpt lat="50.57241" lon="3.44435">
        <ele>20.68</ele>
        <time>2023-05-19T11:32:14.741Z</time>
      </trkpt>
      <trkpt lat="50.57239" lon="3.44444">
        <ele>22.21</ele>
        <time>2023-05-19T11:32:16.982Z</time>
      </trkpt>
      <trkpt lat="50.57231" lon="3.44493">
        <ele>24.19</ele>
        <time>2023-05-19T11:32:19.228Z</time>
      </trkpt>
      <trkpt lat="50.57225" lon="3.4456">
        <ele>26.2</ele>
        <time>2023-05-19T11:32:21.481Z</time>
      </trkpt>
      <trkpt lat="50.57213" lon="3.44767">
        <ele>29.53</ele>
        <time>2023-05-19T11:32:23.756Z</time>
      </trkpt>
      <trkpt lat="50.57205" lon="3.4484">
        <ele>30.86</ele>
        <time>2023-05-19T11:32:26.038Z</time>
      </trkpt>
      <trkpt lat="50.57199" lon="3.44878">
        <ele>32.04</ele>
        <time>2023-05-19T11:32:28.324Z</time>
      </trkpt>
      <trkpt lat="50.57182" lon="3.44929">
        <ele>33.05</ele>
        <time>2023-05-19T11:32:30.616Z</time>
      </trkpt>
      <trkpt lat="50.57182" lon="3.44929">
        <ele>33.95</ele>
        <time>2023-05-19T11:32:32.908Z</time>
      </trkpt>
      <trkpt lat="50.57176" lon="3.44942">
        <ele>34.49</ele>
        <time>2023-05-19T11:32:35.202Z</time>
      </trkpt>
      <trkpt lat="50.57176" lon="3.44943">
        <ele>34.5</ele>
        <time>2023-05-19T11:32:37.496Z</time>
      </trkpt>
      <trkpt lat="50.57174" lon="3.44947">
        <ele>34.71</ele>
        <time>2023-05-19T11:32:39.790Z</time>
      </trkpt>
      <trkpt lat="50.57174" lon="3.44947">
        <ele>34.72</ele>
        <time>2023-05-19T11:32:42.084Z</time>
      </trkpt>
      <trkpt lat="50.57171" lon="3.44956">
        <ele>35.11</ele>
        <time>2023-05-19T11:32:44.379Z</time>
      </trkpt>
      <trkpt lat="50.57158" lon="3.44979">
        <ele>35.33</ele>
        <time>2023-05-19T11:32:46.677Z</time>
      </trkpt>
      <trkpt lat="50.57124" lon="3.45032">
        <ele>35.78</ele>
        <time>2023-05-19T11:32:48.983Z</time>
      </trkpt>
      <trkpt lat="50.57001" lon="3.4515">
        <ele>36.36</ele>
        <time>2023-05-19T11:32:51.312Z</time>
      </trkpt>
      <trkpt lat="50.56981" lon="3.45173">
        <ele>36.69</ele>
        <time>2023-05-19T11:32:53.645Z</time>
      </trkpt>
      <trkpt lat="50.56946" lon="3.45222">
        <ele>37.1</ele>
        <time>2023-05-19T11:32:55.986Z</time>
      </trkpt>
      <trkpt lat="50.56946" lon="3.45222">
        <ele>37.33</ele>
        <time>2023-05-19T11:32:58.327Z</time>
      </trkpt>
      <trkpt lat="50.56938" lon="3.4523">
        <ele>37.44</ele>
        <time>2023-05-19T11:33:00.669Z</time>
      </trkpt>
      <trkpt lat="50.56919" lon="3.45263">
        <ele>37.6</ele>
        <time>2023-05-19T11:33:03.016Z</time>
      </trkpt>
      <trkpt lat="50.56919" lon="3.45263">
        <ele>37.72</ele>
        <time>2023-05-19T11:33:05.363Z</time>
      </trkpt>
      <trkpt lat="50.56903" lon="3.45289">
        <ele>37.83</ele>
        <time>2023-05-19T11:33:07.713Z</time>
      </trkpt>
      <trkpt lat="50.56817" lon="3.45442">
        <ele>37.78</ele>
        <time>2023-05-19T11:33:10.084Z</time>
      </trkpt>
      <trkpt lat="50.56801" lon="3.45472">
        <ele>38.06</ele>
        <time>2023-05-19T11:33:12.459Z</time>
      </trkpt>
      <trkpt lat="50.5676" lon="3.4556">
        <ele>38.36</ele>
        <time>2023-05-19T11:33:14.845Z</time>
      </trkpt>
      <trkpt lat="50.56729" lon="3.45649">
        <ele>38.89</ele>
        <time>2023-05-19T11:33:17.242Z</time>
      </trkpt>
      <trkpt lat="50.56703" lon="3.45751">
        <ele>39.41</ele>
        <time>2023-05-19T11:33:19.650Z</time>
      </trkpt>
      <trkpt lat="50.5668" lon="3.45879">
        <ele>39.75</ele>
        <time>2023-05-19T11:33:22.071Z</time>
      </trkpt>
      <trkpt lat="50.56666" lon="3.46009">
        <ele>40.57</ele>
        <time>2023-05-19T11:33:24.506Z</time>
      </trkpt>
      <trkpt lat="50.5666" lon="3.46104">
        <ele>40.98</ele>
        <time>2023-05-19T11:33:26.951Z</time>
      </trkpt>
      <trkpt lat="50.56658" lon="3.46128">
        <ele>41.33</ele>
        <time>2023-05-19T11:33:29.398Z</time>
      </trkpt>
      <trkpt lat="50.56658" lon="3.46212">
        <ele>41.62</ele>
        <time>2023-05-19T11:33:31.854Z</time>
      </trkpt>
      <trkpt lat="50.56658" lon="3.46212">
        <ele>41.85</ele>
        <time>2023-05-19T11:33:34.310Z</time>
      </trkpt>
      <trkpt lat="50.56658" lon="3.46262">
        <ele>41.96</ele>
        <time>2023-05-19T11:33:36.771Z</time>
      </trkpt>
      <trkpt lat="50.56659" lon="3.46275">
        <ele>42.16</ele>
        <time>2023-05-19T11:33:39.233Z</time>
      </trkpt>
      <trkpt lat="50.5666" lon="3.46305">
        <ele>42.32</ele>
        <time>2023-05-19T11:33:41.698Z</time>
      </trkpt>
      <trkpt lat="50.56661" lon="3.46326">
        <ele>42.47</ele>
        <time>2023-05-19T11:33:44.165Z</time>
      </trkpt>
      <trkpt lat="50.56668" lon="3.464">
        <ele>42.54</ele>
        <time>2023-05-19T11:33:46.640Z</time>
      </trkpt>
      <trkpt lat="50.56668" lon="3.46401">
        <ele>42.42</ele>
        <time>2023-05-19T11:33:49.115Z</time>
      </trkpt>
      <trkpt lat="50.56675" lon="3.46474">
        <ele>42.06</ele>
        <time>2023-05-19T11:33:51.598Z</time>
      </trkpt>
      <trkpt lat="50.5668" lon="3.46522">
        <ele>41.99</ele>
        <time>2023-05-19T11:33:54.085Z</time>
      </trkpt>
      <trkpt lat="50.56686" lon="3.46567">
        <ele>42.22</ele>
        <time>2023-05-19T11:33:56.577Z</time>
      </trkpt>
      <trkpt lat="50.56694" lon="3.46624">
        <ele>42.71</ele>
        <time>2023-05-19T11:33:59.075Z</time>
      </trkpt>
      <trkpt lat="50.56717" lon="3.46782">
        <ele>43.34</ele>
        <time>2023-05-19T11:34:01.590Z</time>
      </trkpt>
      <trkpt lat="50.56742" lon="3.46947">
        <ele>43.57</ele>
        <time>2023-05-19T11:34:04.122Z</time>
      </trkpt>
      <trkpt lat="50.56742" lon="3.47048">
        <ele>44.47</ele>
        <time>2023-05-19T11:34:06.664Z</time>
      </trkpt>
      <trkpt lat="50.56739" lon="3.47076">
        <ele>44.65</ele>
        <time>2023-05-19T11:34:09.209Z</time>
      </trkpt>
      <trkpt lat="50.56739" lon="3.47076">
        <ele>44.66</ele>
        <time>2023-05-19T11:34:11.754Z</time>
      </trkpt>
      <trkpt lat="50.56739" lon="3.47076">
        <ele>44.73</ele>
        <time>2023-05-19T11:34:14.299Z</time>
      </trkpt>
      <trkpt lat="50.56732" lon="3.4716">
        <ele>44.28</ele>
        <time>2023-05-19T11:34:16.853Z</time>
      </trkpt>
      <trkpt lat="50.56732" lon="3.47192">
        <ele>44.12</ele>
        <time>2023-05-19T11:34:19.410Z</time>
      </trkpt>
      <trkpt lat="50.56733" lon="3.47209">
        <ele>44.14</ele>
        <time>2023-05-19T11:34:21.969Z</time>
      </trkpt>
      <trkpt lat="50.56742" lon="3.47241">
        <ele>44.27</ele>
        <time>2023-05-19T11:34:24.531Z</time>
      </trkpt>
      <trkpt lat="50.56774" lon="3.47365">
        <ele>44.47</ele>
        <time>2023-05-19T11:34:27.107Z</time>
      </trkpt>
      <trkpt lat="50.56812" lon="3.47507">
        <ele>44.94</ele>
        <time>2023-05-19T11:34:29.699Z</time>
      </trkpt>
      <trkpt lat="50.56815" lon="3.47518">
        <ele>45.31</ele>
        <time>2023-05-19T11:34:32.292Z</time>
      </trkpt>
      <trkpt lat="50.5682" lon="3.47528">
        <ele>45.7</ele>
        <time>2023-05-19T11:34:34.886Z</time>
      </trkpt>
      <trkpt lat="50.56828" lon="3.47537">
        <ele>46.09</ele>
        <time>2023-05-19T11:34:37.482Z</time>
      </trkpt>
      <trkpt lat="50.56897" lon="3.47572">
        <ele>46.77</ele>
        <time>2023-05-19T11:34:40.090Z</time>
      </trkpt>
      <trkpt lat="50.56944" lon="3.47599">
        <ele>47.13</ele>
        <time>2023-05-19T11:34:42.705Z</time>
      </trkpt>
      <trkpt lat="50.56963" lon="3.47614">
        <ele>47.5</ele>
        <time>2023-05-19T11:34:45.324Z</time>
      </trkpt>
      <trkpt lat="50.57079" lon="3.47757">
        <ele>47.71</ele>
        <time>2023-05-19T11:34:47.966Z</time>
      </trkpt>
      <trkpt lat="50.57091" lon="3.47773">
        <ele>47.94</ele>
        <time>2023-05-19T11:34:50.611Z</time>
      </trkpt>
      <trkpt lat="50.57107" lon="3.47799">
        <ele>48.16</ele>
        <time>2023-05-19T11:34:53.260Z</time>
      </trkpt>
      <trkpt lat="50.57122" lon="3.47834">
        <ele>48.4</ele>
        <time>2023-05-19T11:34:55.913Z</time>
      </trkpt>
      <trkpt lat="50.57133" lon="3.47873">
        <ele>48.75</ele>
        <time>2023-05-19T11:34:58.570Z</time>
      </trkpt>
      <trkpt lat="50.57171" lon="3.48065">
        <ele>48.99</ele>
        <time>2023-05-19T11:35:01.248Z</time>
      </trkpt>
      <trkpt lat="50.57174" lon="3.4809">
        <ele>49.38</ele>
        <time>2023-05-19T11:35:03.928Z</time>
      </trkpt>
      <trkpt lat="50.57174" lon="3.4809">
        <ele>49.81</ele>
        <time>2023-05-19T11:35:06.608Z</time>
      </trkpt>
      <trkpt lat="50.5718" lon="3.48099">
        <ele>50.34</ele>
        <time>2023-05-19T11:35:09.290Z</time>
      </trkpt>
      <trkpt lat="50.57234" lon="3.48362">
        <ele>51.12</ele>
        <time>2023-05-19T11:35:12.000Z</time>
      </trkpt>
      <trkpt lat="50.57246" lon="3.48417">
        <ele>51.79</ele>
        <time>2023-05-19T11:35:14.716Z</time>
      </trkpt>
      <trkpt lat="50.57246" lon="3.48417">
        <ele>52.16</ele>
        <time>2023-05-19T11:35:17.432Z</time>
      </trkpt>
      <trkpt lat="50.57253" lon="3.48448">
        <ele>52.58</ele>
        <time>2023-05-19T11:35:20.151Z</time>
      </trkpt>
      <trkpt lat="50.57263" lon="3.48502">
        <ele>52.65</ele>
        <time>2023-05-19T11:35:22.876Z</time>
      </trkpt>
      <trkpt lat="50.57263" lon="3.48502">
        <ele>52.68</ele>
        <time>2023-05-19T11:35:25.601Z</time>
      </trkpt>
      <trkpt lat="50.5727" lon="3.48535">
        <ele>52</ele>
        <time>2023-05-19T11:35:28.329Z</time>
      </trkpt>
      <trkpt lat="50.5728" lon="3.48588">
        <ele>51.43</ele>
        <time>2023-05-19T11:35:31.063Z</time>
      </trkpt>
      <trkpt lat="50.5728" lon="3.48625">
        <ele>50.83</ele>
        <time>2023-05-19T11:35:33.801Z</time>
      </trkpt>
      <trkpt lat="50.57276" lon="3.48681">
        <ele>49.81</ele>
        <time>2023-05-19T11:35:36.545Z</time>
      </trkpt>
      <trkpt lat="50.5726" lon="3.48756">
        <ele>48.84</ele>
        <time>2023-05-19T11:35:39.297Z</time>
      </trkpt>
      <trkpt lat="50.57253" lon="3.48775">
        <ele>48.27</ele>
        <time>2023-05-19T11:35:42.051Z</time>
      </trkpt>
      <trkpt lat="50.57235" lon="3.48808">
        <ele>47.75</ele>
        <time>2023-05-19T11:35:44.809Z</time>
      </trkpt>
      <trkpt lat="50.57221" lon="3.48832">
        <ele>47.05</ele>
        <time>2023-05-19T11:35:47.571Z</time>
      </trkpt>
      <trkpt lat="50.57212" lon="3.48845">
        <ele>46.5</ele>
        <time>2023-05-19T11:35:50.335Z</time>
      </trkpt>
      <trkpt lat="50.57109" lon="3.48951">
        <ele>45.44</ele>
        <time>2023-05-19T11:35:53.118Z</time>
      </trkpt>
      <trkpt lat="50.57076" lon="3.48985">
        <ele>44.85</ele>
        <time>2023-05-19T11:35:55.908Z</time>
      </trkpt>
      <trkpt lat="50.57047" lon="3.49014">
        <ele>44.67</ele>
        <time>2023-05-19T11:35:58.703Z</time>
      </trkpt>
      <trkpt lat="50.57" lon="3.49062">
        <ele>44.11</ele>
        <time>2023-05-19T11:36:01.507Z</time>
      </trkpt>
      <trkpt lat="50.56974" lon="3.49103">
        <ele>43.64</ele>
        <time>2023-05-19T11:36:04.317Z</time>
      </trkpt>
      <trkpt lat="50.56949" lon="3.49173">
        <ele>43.17</ele>
        <time>2023-05-19T11:36:07.135Z</time>
      </trkpt>
      <trkpt lat="50.56914" lon="3.49287">
        <ele>42.1</ele>
        <time>2023-05-19T11:36:09.966Z</time>
      </trkpt>
      <trkpt lat="50.56905" lon="3.49312">
        <ele>41.5</ele>
        <time>2023-05-19T11:36:12.800Z</time>
      </trkpt>
      <trkpt lat="50.56868" lon="3.49408">
        <ele>40.85</ele>
        <time>2023-05-19T11:36:15.646Z</time>
      </trkpt>
      <trkpt lat="50.56861" lon="3.49432">
        <ele>40.38</ele>
        <time>2023-05-19T11:36:18.494Z</time>
      </trkpt>
      <trkpt lat="50.56843" lon="3.49486">
        <ele>39.96</ele>
        <time>2023-05-19T11:36:21.349Z</time>
      </trkpt>
      <trkpt lat="50.56819" lon="3.49568">
        <ele>39.84</ele>
        <time>2023-05-19T11:36:24.213Z</time>
      </trkpt>
      <trkpt lat="50.56819" lon="3.49626">
        <ele>40.07</ele>
        <time>2023-05-19T11:36:27.083Z</time>
      </trkpt>
      <trkpt lat="50.56822" lon="3.4968">
        <ele>40.76</ele>
        <time>2023-05-19T11:36:29.958Z</time>
      </trkpt>
      <trkpt lat="50.56844" lon="3.49892">
        <ele>41.85</ele>
        <time>2023-05-19T11:36:32.855Z</time>
      </trkpt>
      <trkpt lat="50.56776" lon="3.49917">
        <ele>40.92</ele>
        <time>2023-05-19T11:36:35.763Z</time>
      </trkpt>
      <trkpt lat="50.56761" lon="3.49925">
        <ele>40.56</ele>
        <time>2023-05-19T11:36:38.674Z</time>
      </trkpt>
      <trkpt lat="50.56761" lon="3.49925">
        <ele>39.8</ele>
        <time>2023-05-19T11:36:41.585Z</time>
      </trkpt>
      <trkpt lat="50.56741" lon="3.49936">
        <ele>41.56</ele>
        <time>2023-05-19T11:36:44.499Z</time>
      </trkpt>
      <trkpt lat="50.56657" lon="3.49993">
        <ele>41.36</ele>
        <time>2023-05-19T11:36:47.428Z</time>
      </trkpt>
      <trkpt lat="50.56547" lon="3.50081">
        <ele>41.46</ele>
        <time>2023-05-19T11:36:50.377Z</time>
      </trkpt>
      <trkpt lat="50.5653" lon="3.50101">
        <ele>41.72</ele>
        <time>2023-05-19T11:36:53.329Z</time>
      </trkpt>
      <trkpt lat="50.56518" lon="3.50134">
        <ele>42.22</ele>
        <time>2023-05-19T11:36:56.285Z</time>
      </trkpt>
      <trkpt lat="50.56509" lon="3.50186">
        <ele>43</ele>
        <time>2023-05-19T11:36:59.246Z</time>
      </trkpt>
      <trkpt lat="50.56505" lon="3.50247">
        <ele>43.9</ele>
        <time>2023-05-19T11:37:02.214Z</time>
      </trkpt>
      <trkpt lat="50.56504" lon="3.50273">
        <ele>44.84</ele>
        <time>2023-05-19T11:37:05.184Z</time>
      </trkpt>
      <trkpt lat="50.56496" lon="3.50334">
        <ele>46.04</ele>
        <time>2023-05-19T11:37:08.161Z</time>
      </trkpt>
      <trkpt lat="50.5649" lon="3.50369">
        <ele>46.87</ele>
        <time>2023-05-19T11:37:11.141Z</time>
      </trkpt>
      <trkpt lat="50.56424" lon="3.50493">
        <ele>47.89</ele>
        <time>2023-05-19T11:37:14.138Z</time>
      </trkpt>
      <trkpt lat="50.56423" lon="3.50495">
        <ele>48.46</ele>
        <time>2023-05-19T11:37:17.135Z</time>
      </trkpt>
      <trkpt lat="50.56423" lon="3.50495">
        <ele>48.48</ele>
        <time>2023-05-19T11:37:20.132Z</time>
      </trkpt>
      <trkpt lat="50.56423" lon="3.50495">
        <ele>47.7</ele>
        <time>2023-05-19T11:37:23.129Z</time>
      </trkpt>
      <trkpt lat="50.56418" lon="3.50505">
        <ele>47.9</ele>
        <time>2023-05-19T11:37:26.127Z</time>
      </trkpt>
      <trkpt lat="50.56418" lon="3.50505">
        <ele>47.91</ele>
        <time>2023-05-19T11:37:29.125Z</time>
      </trkpt>
      <trkpt lat="50.56418" lon="3.50505">
        <ele>47.92</ele>
        <time>2023-05-19T11:37:32.123Z</time>
      </trkpt>
      <trkpt lat="50.56418" lon="3.50506">
        <ele>47.94</ele>
        <time>2023-05-19T11:37:35.121Z</time>
      </trkpt>
      <trkpt lat="50.56415" lon="3.50512">
        <ele>48.08</ele>
        <time>2023-05-19T11:37:38.120Z</time>
      </trkpt>
      <trkpt lat="50.56321" lon="3.50696">
        <ele>47.52</ele>
        <time>2023-05-19T11:37:41.143Z</time>
      </trkpt>
      <trkpt lat="50.56301" lon="3.50747">
        <ele>47.56</ele>
        <time>2023-05-19T11:37:44.172Z</time>
      </trkpt>
      <trkpt lat="50.56272" lon="3.50886">
        <ele>48.03</ele>
        <time>2023-05-19T11:37:47.216Z</time>
      </trkpt>
      <trkpt lat="50.56238" lon="3.50964">
        <ele>47.06</ele>
        <time>2023-05-19T11:37:50.270Z</time>
      </trkpt>
      <trkpt lat="50.56214" lon="3.50999">
        <ele>46.32</ele>
        <time>2023-05-19T11:37:53.329Z</time>
      </trkpt>
      <trkpt lat="50.56152" lon="3.51083">
        <ele>45.3</ele>
        <time>2023-05-19T11:37:56.401Z</time>
      </trkpt>
      <trkpt lat="50.56116" lon="3.51113">
        <ele>44.87</ele>
        <time>2023-05-19T11:37:59.480Z</time>
      </trkpt>
      <trkpt lat="50.56116" lon="3.51113">
        <ele>44.9</ele>
        <time>2023-05-19T11:38:02.559Z</time>
      </trkpt>
      <trkpt lat="50.56112" lon="3.51114">
        <ele>45.29</ele>
        <time>2023-05-19T11:38:05.638Z</time>
      </trkpt>
      <trkpt lat="50.5601" lon="3.51144">
        <ele>45.89</ele>
        <time>2023-05-19T11:38:08.734Z</time>
      </trkpt>
      <trkpt lat="50.55985" lon="3.51149">
        <ele>46.94</ele>
        <time>2023-05-19T11:38:11.834Z</time>
      </trkpt>
      <trkpt lat="50.55931" lon="3.51162">
        <ele>48.45</ele>
        <time>2023-05-19T11:38:14.943Z</time>
      </trkpt>
      <trkpt lat="50.55745" lon="3.51206">
        <ele>50.96</ele>
        <time>2023-05-19T11:38:18.082Z</time>
      </trkpt>
      <trkpt lat="50.55669" lon="3.51223">
        <ele>52.64</ele>
        <time>2023-05-19T11:38:21.233Z</time>
      </trkpt>
      <trkpt lat="50.55611" lon="3.51238">
        <ele>54.67</ele>
        <time>2023-05-19T11:38:24.394Z</time>
      </trkpt>
      <trkpt lat="50.55588" lon="3.51248">
        <ele>56.26</ele>
        <time>2023-05-19T11:38:27.558Z</time>
      </trkpt>
      <trkpt lat="50.55541" lon="3.51279">
        <ele>57.4</ele>
        <time>2023-05-19T11:38:30.731Z</time>
      </trkpt>
      <trkpt lat="50.55537" lon="3.51271">
        <ele>58.32</ele>
        <time>2023-05-19T11:38:33.905Z</time>
      </trkpt>
      <trkpt lat="50.55531" lon="3.51267">
        <ele>59</ele>
        <time>2023-05-19T11:38:37.080Z</time>
      </trkpt>
      <trkpt lat="50.55525" lon="3.51271">
        <ele>59.48</ele>
        <time>2023-05-19T11:38:40.256Z</time>
      </trkpt>
      <trkpt lat="50.55521" lon="3.51278">
        <ele>59.82</ele>
        <time>2023-05-19T11:38:43.433Z</time>
      </trkpt>
      <trkpt lat="50.5552" lon="3.51285">
        <ele>60.03</ele>
        <time>2023-05-19T11:38:46.610Z</time>
      </trkpt>
      <trkpt lat="50.55518" lon="3.51293">
        <ele>60.12</ele>
        <time>2023-05-19T11:38:49.788Z</time>
      </trkpt>
      <trkpt lat="50.55508" lon="3.51313">
        <ele>60.18</ele>
        <time>2023-05-19T11:38:52.969Z</time>
      </trkpt>
      <trkpt lat="50.55464" lon="3.51357">
        <ele>60.02</ele>
        <time>2023-05-19T11:38:56.158Z</time>
      </trkpt>
      <trkpt lat="50.55448" lon="3.51368">
        <ele>59.99</ele>
        <time>2023-05-19T11:38:59.350Z</time>
      </trkpt>
      <trkpt lat="50.55416" lon="3.51399">
        <ele>59.88</ele>
        <time>2023-05-19T11:39:02.548Z</time>
      </trkpt>
      <trkpt lat="50.55404" lon="3.51408">
        <ele>59.77</ele>
        <time>2023-05-19T11:39:05.748Z</time>
      </trkpt>
      <trkpt lat="50.5539" lon="3.51416">
        <ele>59.65</ele>
        <time>2023-05-19T11:39:08.951Z</time>
      </trkpt>
      <trkpt lat="50.55361" lon="3.51418">
        <ele>59.51</ele>
        <time>2023-05-19T11:39:12.158Z</time>
      </trkpt>
      <trkpt lat="50.55333" lon="3.51409">
        <ele>59.33</ele>
        <time>2023-05-19T11:39:15.370Z</time>
      </trkpt>
      <trkpt lat="50.55325" lon="3.51404">
        <ele>59.09</ele>
        <time>2023-05-19T11:39:18.583Z</time>
      </trkpt>
      <trkpt lat="50.55318" lon="3.51398">
        <ele>58.75</ele>
        <time>2023-05-19T11:39:21.797Z</time>
      </trkpt>
      <trkpt lat="50.55301" lon="3.51387">
        <ele>58.29</ele>
        <time>2023-05-19T11:39:25.014Z</time>
      </trkpt>
      <trkpt lat="50.55222" lon="3.51315">
        <ele>57.7</ele>
        <time>2023-05-19T11:39:28.246Z</time>
      </trkpt>
      <trkpt lat="50.5519" lon="3.5129">
        <ele>56.31</ele>
        <time>2023-05-19T11:39:31.484Z</time>
      </trkpt>
      <trkpt lat="50.5517" lon="3.51271">
        <ele>54.96</ele>
        <time>2023-05-19T11:39:34.726Z</time>
      </trkpt>
      <trkpt lat="50.55057" lon="3.51176">
        <ele>53.11</ele>
        <time>2023-05-19T11:39:37.988Z</time>
      </trkpt>
      <trkpt lat="50.55018" lon="3.51152">
        <ele>51.79</ele>
        <time>2023-05-19T11:39:41.257Z</time>
      </trkpt>
      <trkpt lat="50.55032" lon="3.51069">
        <ele>51.63</ele>
        <time>2023-05-19T11:39:44.535Z</time>
      </trkpt>
      <trkpt lat="50.55046" lon="3.50996">
        <ele>49.51</ele>
        <time>2023-05-19T11:39:47.820Z</time>
      </trkpt>
      <trkpt lat="50.55046" lon="3.50996">
        <ele>49.51</ele>
        <time>2023-05-19T11:39:51.105Z</time>
      </trkpt>
      <trkpt lat="50.55048" lon="3.50985">
        <ele>49.17</ele>
        <time>2023-05-19T11:39:54.392Z</time>
      </trkpt>
      <trkpt lat="50.55049" lon="3.50985">
        <ele>49.16</ele>
        <time>2023-05-19T11:39:57.679Z</time>
      </trkpt>
      <trkpt lat="50.55049" lon="3.50984">
        <ele>49.15</ele>
        <time>2023-05-19T11:40:00.966Z</time>
      </trkpt>
      <trkpt lat="50.55049" lon="3.50984">
        <ele>49.14</ele>
        <time>2023-05-19T11:40:04.253Z</time>
      </trkpt>
      <trkpt lat="50.5505" lon="3.50977">
        <ele>48.93</ele>
        <time>2023-05-19T11:40:07.540Z</time>
      </trkpt>
      <trkpt lat="50.55053" lon="3.50962">
        <ele>48.23</ele>
        <time>2023-05-19T11:40:10.829Z</time>
      </trkpt>
      <trkpt lat="50.55079" lon="3.50878">
        <ele>47</ele>
        <time>2023-05-19T11:40:14.128Z</time>
      </trkpt>
      <trkpt lat="50.55095" lon="3.50843">
        <ele>45.72</ele>
        <time>2023-05-19T11:40:17.431Z</time>
      </trkpt>
      <trkpt lat="50.5509" lon="3.50811">
        <ele>44.67</ele>
        <time>2023-05-19T11:40:20.737Z</time>
      </trkpt>
      <trkpt lat="50.55089" lon="3.5079">
        <ele>43.67</ele>
        <time>2023-05-19T11:40:24.045Z</time>
      </trkpt>
      <trkpt lat="50.55102" lon="3.50717">
        <ele>42.51</ele>
        <time>2023-05-19T11:40:27.361Z</time>
      </trkpt>
      <trkpt lat="50.55104" lon="3.50688">
        <ele>41.57</ele>
        <time>2023-05-19T11:40:30.680Z</time>
      </trkpt>
      <trkpt lat="50.55101" lon="3.50663">
        <ele>40.77</ele>
        <time>2023-05-19T11:40:34.002Z</time>
      </trkpt>
      <trkpt lat="50.55086" lon="3.50621">
        <ele>40.13</ele>
        <time>2023-05-19T11:40:37.329Z</time>
      </trkpt>
      <trkpt lat="50.55085" lon="3.50597">
        <ele>39.61</ele>
        <time>2023-05-19T11:40:40.658Z</time>
      </trkpt>
      <trkpt lat="50.55086" lon="3.50579">
        <ele>39.22</ele>
        <time>2023-05-19T11:40:43.989Z</time>
      </trkpt>
      <trkpt lat="50.55087" lon="3.50569">
        <ele>38.98</ele>
        <time>2023-05-19T11:40:47.321Z</time>
      </trkpt>
      <trkpt lat="50.55091" lon="3.50556">
        <ele>38.8</ele>
        <time>2023-05-19T11:40:50.654Z</time>
      </trkpt>
      <trkpt lat="50.55104" lon="3.50527">
        <ele>38.53</ele>
        <time>2023-05-19T11:40:53.991Z</time>
      </trkpt>
      <trkpt lat="50.5514" lon="3.50454">
        <ele>38.37</ele>
        <time>2023-05-19T11:40:57.338Z</time>
      </trkpt>
      <trkpt lat="50.55149" lon="3.50426">
        <ele>37.98</ele>
        <time>2023-05-19T11:41:00.688Z</time>
      </trkpt>
      <trkpt lat="50.55158" lon="3.50395">
        <ele>37.46</ele>
        <time>2023-05-19T11:41:04.041Z</time>
      </trkpt>
      <trkpt lat="50.55201" lon="3.50227">
        <ele>34.72</ele>
        <time>2023-05-19T11:41:07.413Z</time>
      </trkpt>
      <trkpt lat="50.55201" lon="3.50227">
        <ele>34.72</ele>
        <time>2023-05-19T11:41:10.785Z</time>
      </trkpt>
      <trkpt lat="50.55204" lon="3.50216">
        <ele>34.53</ele>
        <time>2023-05-19T11:41:14.158Z</time>
      </trkpt>
      <trkpt lat="50.55204" lon="3.50216">
        <ele>34.53</ele>
        <time>2023-05-19T11:41:17.531Z</time>
      </trkpt>
      <trkpt lat="50.55204" lon="3.50216">
        <ele>34.53</ele>
        <time>2023-05-19T11:41:20.904Z</time>
      </trkpt>
      <trkpt lat="50.55204" lon="3.50216">
        <ele>34.53</ele>
        <time>2023-05-19T11:41:24.277Z</time>
      </trkpt>
      <trkpt lat="50.55206" lon="3.5021">
        <ele>34.42</ele>
        <time>2023-05-19T11:41:27.651Z</time>
      </trkpt>
      <trkpt lat="50.55223" lon="3.50144">
        <ele>33.89</ele>
        <time>2023-05-19T11:41:31.032Z</time>
      </trkpt>
      <trkpt lat="50.55238" lon="3.5008">
        <ele>33.55</ele>
        <time>2023-05-19T11:41:34.420Z</time>
      </trkpt>
      <trkpt lat="50.5524" lon="3.50064">
        <ele>33.31</ele>
        <time>2023-05-19T11:41:37.810Z</time>
      </trkpt>
      <trkpt lat="50.55243" lon="3.50063">
        <ele>33.14</ele>
        <time>2023-05-19T11:41:41.200Z</time>
      </trkpt>
      <trkpt lat="50.55246" lon="3.50057">
        <ele>33.03</ele>
        <time>2023-05-19T11:41:44.591Z</time>
      </trkpt>
      <trkpt lat="50.55247" lon="3.50048">
        <ele>32.92</ele>
        <time>2023-05-19T11:41:47.983Z</time>
      </trkpt>
      <trkpt lat="50.55246" lon="3.50043">
        <ele>32.91</ele>
        <time>2023-05-19T11:41:51.375Z</time>
      </trkpt>
      <trkpt lat="50.55245" lon="3.5004">
        <ele>32.98</ele>
        <time>2023-05-19T11:41:54.768Z</time>
      </trkpt>
      <trkpt lat="50.5524" lon="3.50037">
        <ele>33.16</ele>
        <time>2023-05-19T11:41:58.162Z</time>
      </trkpt>
      <trkpt lat="50.55232" lon="3.50041">
        <ele>33.52</ele>
        <time>2023-05-19T11:42:01.557Z</time>
      </trkpt>
      <trkpt lat="50.55231" lon="3.50045">
        <ele>34.03</ele>
        <time>2023-05-19T11:42:04.952Z</time>
      </trkpt>
      <trkpt lat="50.55208" lon="3.50036">
        <ele>34.71</ele>
        <time>2023-05-19T11:42:08.351Z</time>
      </trkpt>
      <trkpt lat="50.55185" lon="3.50035">
        <ele>35.61</ele>
        <time>2023-05-19T11:42:11.754Z</time>
      </trkpt>
      <trkpt lat="50.55166" lon="3.50026">
        <ele>36.71</ele>
        <time>2023-05-19T11:42:15.160Z</time>
      </trkpt>
      <trkpt lat="50.55119" lon="3.49992">
        <ele>38.23</ele>
        <time>2023-05-19T11:42:18.574Z</time>
      </trkpt>
      <trkpt lat="50.55092" lon="3.49976">
        <ele>39.4</ele>
        <time>2023-05-19T11:42:21.993Z</time>
      </trkpt>
      <trkpt lat="50.55057" lon="3.49946">
        <ele>40.57</ele>
        <time>2023-05-19T11:42:25.418Z</time>
      </trkpt>
      <trkpt lat="50.5501" lon="3.49909">
        <ele>41.38</ele>
        <time>2023-05-19T11:42:28.852Z</time>
      </trkpt>
      <trkpt lat="50.54991" lon="3.49891">
        <ele>41.54</ele>
        <time>2023-05-19T11:42:32.289Z</time>
      </trkpt>
      <trkpt lat="50.54952" lon="3.49835">
        <ele>41.14</ele>
        <time>2023-05-19T11:42:35.735Z</time>
      </trkpt>
      <trkpt lat="50.54888" lon="3.49749">
        <ele>40.37</ele>
        <time>2023-05-19T11:42:39.194Z</time>
      </trkpt>
      <trkpt lat="50.54879" lon="3.49739">
        <ele>38.96</ele>
        <time>2023-05-19T11:42:42.655Z</time>
      </trkpt>
      <trkpt lat="50.54879" lon="3.49739">
        <ele>38.95</ele>
        <time>2023-05-19T11:42:46.116Z</time>
      </trkpt>
      <trkpt lat="50.54872" lon="3.49732">
        <ele>37.98</ele>
        <time>2023-05-19T11:42:49.578Z</time>
      </trkpt>
      <trkpt lat="50.54872" lon="3.49732">
        <ele>37.95</ele>
        <time>2023-05-19T11:42:53.040Z</time>
      </trkpt>
      <trkpt lat="50.54872" lon="3.49731">
        <ele>37.92</ele>
        <time>2023-05-19T11:42:56.503Z</time>
      </trkpt>
      <trkpt lat="50.54871" lon="3.49731">
        <ele>37.88</ele>
        <time>2023-05-19T11:42:59.966Z</time>
      </trkpt>
      <trkpt lat="50.54867" lon="3.49727">
        <ele>37.29</ele>
        <time>2023-05-19T11:43:03.429Z</time>
      </trkpt>
      <trkpt lat="50.54806" lon="3.49659">
        <ele>36.34</ele>
        <time>2023-05-19T11:43:06.904Z</time>
      </trkpt>
      <trkpt lat="50.54806" lon="3.49659">
        <ele>35.96</ele>
        <time>2023-05-19T11:43:10.379Z</time>
      </trkpt>
      <trkpt lat="50.5478" lon="3.49632">
        <ele>35.95</ele>
        <time>2023-05-19T11:43:13.859Z</time>
      </trkpt>
      <trkpt lat="50.54746" lon="3.4961">
        <ele>36.09</ele>
        <time>2023-05-19T11:43:17.345Z</time>
      </trkpt>
      <trkpt lat="50.54724" lon="3.49595">
        <ele>36.02</ele>
        <time>2023-05-19T11:43:20.835Z</time>
      </trkpt>
      <trkpt lat="50.54711" lon="3.49587">
        <ele>35.95</ele>
        <time>2023-05-19T11:43:24.327Z</time>
      </trkpt>
      <trkpt lat="50.547" lon="3.49583">
        <ele>35.87</ele>
        <time>2023-05-19T11:43:27.821Z</time>
      </trkpt>
      <trkpt lat="50.54682" lon="3.49581">
        <ele>35.86</ele>
        <time>2023-05-19T11:43:31.318Z</time>
      </trkpt>
      <trkpt lat="50.54656" lon="3.49585">
        <ele>35.85</ele>
        <time>2023-05-19T11:43:34.819Z</time>
      </trkpt>
      <trkpt lat="50.54648" lon="3.49595">
        <ele>35.75</ele>
        <time>2023-05-19T11:43:38.322Z</time>
      </trkpt>
      <trkpt lat="50.54606" lon="3.49568">
        <ele>35.39</ele>
        <time>2023-05-19T11:43:41.832Z</time>
      </trkpt>
      <trkpt lat="50.54596" lon="3.49565">
        <ele>35.23</ele>
        <time>2023-05-19T11:43:45.344Z</time>
      </trkpt>
      <trkpt lat="50.54584" lon="3.49565">
        <ele>35.15</ele>
        <time>2023-05-19T11:43:48.858Z</time>
      </trkpt>
      <trkpt lat="50.54581" lon="3.49558">
        <ele>35.2</ele>
        <time>2023-05-19T11:43:52.372Z</time>
      </trkpt>
      <trkpt lat="50.54575" lon="3.4955">
        <ele>35.38</ele>
        <time>2023-05-19T11:43:55.888Z</time>
      </trkpt>
      <trkpt lat="50.54557" lon="3.49524">
        <ele>35.73</ele>
        <time>2023-05-19T11:43:59.408Z</time>
      </trkpt>
      <trkpt lat="50.5455" lon="3.49514">
        <ele>36.14</ele>
        <time>2023-05-19T11:44:02.929Z</time>
      </trkpt>
      <trkpt lat="50.54543" lon="3.49499">
        <ele>36.53</ele>
        <time>2023-05-19T11:44:06.452Z</time>
      </trkpt>
      <trkpt lat="50.5454" lon="3.49483">
        <ele>36.74</ele>
        <time>2023-05-19T11:44:09.977Z</time>
      </trkpt>
      <trkpt lat="50.54539" lon="3.49468">
        <ele>36.85</ele>
        <time>2023-05-19T11:44:13.503Z</time>
      </trkpt>
      <trkpt lat="50.54543" lon="3.49447">
        <ele>36.7</ele>
        <time>2023-05-19T11:44:17.032Z</time>
      </trkpt>
      <trkpt lat="50.54548" lon="3.49433">
        <ele>36.17</ele>
        <time>2023-05-19T11:44:20.562Z</time>
      </trkpt>
      <trkpt lat="50.54594" lon="3.49289">
        <ele>33.64</ele>
        <time>2023-05-19T11:44:24.109Z</time>
      </trkpt>
      <trkpt lat="50.54594" lon="3.49289">
        <ele>33.64</ele>
        <time>2023-05-19T11:44:27.656Z</time>
      </trkpt>
      <trkpt lat="50.54597" lon="3.49278">
        <ele>33.44</ele>
        <time>2023-05-19T11:44:31.204Z</time>
      </trkpt>
      <trkpt lat="50.54597" lon="3.49278">
        <ele>33.44</ele>
        <time>2023-05-19T11:44:34.752Z</time>
      </trkpt>
      <trkpt lat="50.54597" lon="3.49278">
        <ele>33.44</ele>
        <time>2023-05-19T11:44:38.300Z</time>
      </trkpt>
      <trkpt lat="50.54597" lon="3.49278">
        <ele>33.44</ele>
        <time>2023-05-19T11:44:41.848Z</time>
      </trkpt>
      <trkpt lat="50.54599" lon="3.49272">
        <ele>33.32</ele>
        <time>2023-05-19T11:44:45.397Z</time>
      </trkpt>
      <trkpt lat="50.54616" lon="3.49218">
        <ele>33.23</ele>
        <time>2023-05-19T11:44:48.952Z</time>
      </trkpt>
      <trkpt lat="50.54635" lon="3.49172">
        <ele>33.07</ele>
        <time>2023-05-19T11:44:52.512Z</time>
      </trkpt>
      <trkpt lat="50.54645" lon="3.49112">
        <ele>32.78</ele>
        <time>2023-05-19T11:44:56.079Z</time>
      </trkpt>
      <trkpt lat="50.54677" lon="3.48985">
        <ele>32.59</ele>
        <time>2023-05-19T11:44:59.659Z</time>
      </trkpt>
      <trkpt lat="50.5471" lon="3.4886">
        <ele>32</ele>
        <time>2023-05-19T11:45:03.253Z</time>
      </trkpt>
      <trkpt lat="50.54729" lon="3.48719">
        <ele>31.22</ele>
        <time>2023-05-19T11:45:06.862Z</time>
      </trkpt>
      <trkpt lat="50.54733" lon="3.48698">
        <ele>30.67</ele>
        <time>2023-05-19T11:45:10.473Z</time>
      </trkpt>
      <trkpt lat="50.54744" lon="3.48679">
        <ele>30.08</ele>
        <time>2023-05-19T11:45:14.087Z</time>
      </trkpt>
      <trkpt lat="50.54771" lon="3.48643">
        <ele>29.48</ele>
        <time>2023-05-19T11:45:17.706Z</time>
      </trkpt>
      <trkpt lat="50.54798" lon="3.48614">
        <ele>29.16</ele>
        <time>2023-05-19T11:45:21.331Z</time>
      </trkpt>
      <trkpt lat="50.54886" lon="3.48423">
        <ele>28.63</ele>
        <time>2023-05-19T11:45:24.980Z</time>
      </trkpt>
      <trkpt lat="50.54938" lon="3.48314">
        <ele>28.39</ele>
        <time>2023-05-19T11:45:28.643Z</time>
      </trkpt>
      <trkpt lat="50.54948" lon="3.48294">
        <ele>28.12</ele>
        <time>2023-05-19T11:45:32.308Z</time>
      </trkpt>
      <trkpt lat="50.5498" lon="3.48244">
        <ele>27.96</ele>
        <time>2023-05-19T11:45:35.981Z</time>
      </trkpt>
      <trkpt lat="50.55018" lon="3.48198">
        <ele>27.63</ele>
        <time>2023-05-19T11:45:39.661Z</time>
      </trkpt>
      <trkpt lat="50.55038" lon="3.48178">
        <ele>27.43</ele>
        <time>2023-05-19T11:45:43.345Z</time>
      </trkpt>
      <trkpt lat="50.5518" lon="3.48053">
        <ele>27.28</ele>
        <time>2023-05-19T11:45:47.055Z</time>
      </trkpt>
      <trkpt lat="50.55188" lon="3.48047">
        <ele>27.13</ele>
        <time>2023-05-19T11:45:50.767Z</time>
      </trkpt>
      <trkpt lat="50.55201" lon="3.48027">
        <ele>27.01</ele>
        <time>2023-05-19T11:45:54.481Z</time>
      </trkpt>
      <trkpt lat="50.5521" lon="3.48008">
        <ele>27.08</ele>
        <time>2023-05-19T11:45:58.198Z</time>
      </trkpt>
      <trkpt lat="50.55205" lon="3.47937">
        <ele>27.15</ele>
        <time>2023-05-19T11:46:01.922Z</time>
      </trkpt>
      <trkpt lat="50.55207" lon="3.47918">
        <ele>27.17</ele>
        <time>2023-05-19T11:46:05.648Z</time>
      </trkpt>
      <trkpt lat="50.55212" lon="3.47892">
        <ele>27.47</ele>
        <time>2023-05-19T11:46:09.377Z</time>
      </trkpt>
      <trkpt lat="50.55231" lon="3.4781">
        <ele>27.6</ele>
        <time>2023-05-19T11:46:13.115Z</time>
      </trkpt>
      <trkpt lat="50.55234" lon="3.47794">
        <ele>28.2</ele>
        <time>2023-05-19T11:46:16.854Z</time>
      </trkpt>
      <trkpt lat="50.55234" lon="3.47794">
        <ele>28.21</ele>
        <time>2023-05-19T11:46:20.593Z</time>
      </trkpt>
      <trkpt lat="50.55236" lon="3.47782">
        <ele>28.69</ele>
        <time>2023-05-19T11:46:24.334Z</time>
      </trkpt>
      <trkpt lat="50.55236" lon="3.47782">
        <ele>28.71</ele>
        <time>2023-05-19T11:46:28.075Z</time>
      </trkpt>
      <trkpt lat="50.55236" lon="3.47782">
        <ele>29.58</ele>
        <time>2023-05-19T11:46:31.816Z</time>
      </trkpt>
      <trkpt lat="50.55242" lon="3.47753">
        <ele>30.88</ele>
        <time>2023-05-19T11:46:35.560Z</time>
      </trkpt>
      <trkpt lat="50.55304" lon="3.47635">
        <ele>33.66</ele>
        <time>2023-05-19T11:46:39.320Z</time>
      </trkpt>
      <trkpt lat="50.55336" lon="3.47594">
        <ele>35.64</ele>
        <time>2023-05-19T11:46:43.086Z</time>
      </trkpt>
      <trkpt lat="50.55428" lon="3.47519">
        <ele>36.77</ele>
        <time>2023-05-19T11:46:46.869Z</time>
      </trkpt>
      <trkpt lat="50.55454" lon="3.47487">
        <ele>37.44</ele>
        <time>2023-05-19T11:46:50.657Z</time>
      </trkpt>
      <trkpt lat="50.55475" lon="3.47439">
        <ele>37.49</ele>
        <time>2023-05-19T11:46:54.451Z</time>
      </trkpt>
      <trkpt lat="50.55524" lon="3.47241">
        <ele>37.42</ele>
        <time>2023-05-19T11:46:58.267Z</time>
      </trkpt>
      <trkpt lat="50.55524" lon="3.47241">
        <ele>37.42</ele>
        <time>2023-05-19T11:47:02.083Z</time>
      </trkpt>
      <trkpt lat="50.55526" lon="3.47231">
        <ele>37.42</ele>
        <time>2023-05-19T11:47:05.900Z</time>
      </trkpt>
      <trkpt lat="50.55526" lon="3.4723">
        <ele>37.34</ele>
        <time>2023-05-19T11:47:09.717Z</time>
      </trkpt>
      <trkpt lat="50.55526" lon="3.4723">
        <ele>37.32</ele>
        <time>2023-05-19T11:47:13.534Z</time>
      </trkpt>
      <trkpt lat="50.55541" lon="3.47116">
        <ele>29.43</ele>
        <time>2023-05-19T11:47:17.363Z</time>
      </trkpt>
      <trkpt lat="50.55553" lon="3.46969">
        <ele>27.41</ele>
        <time>2023-05-19T11:47:21.207Z</time>
      </trkpt>
      <trkpt lat="50.55558" lon="3.46948">
        <ele>26.33</ele>
        <time>2023-05-19T11:47:25.053Z</time>
      </trkpt>
      <trkpt lat="50.55575" lon="3.46894">
        <ele>25.6</ele>
        <time>2023-05-19T11:47:28.905Z</time>
      </trkpt>
      <trkpt lat="50.55583" lon="3.46868">
        <ele>25.19</ele>
        <time>2023-05-19T11:47:32.760Z</time>
      </trkpt>
      <trkpt lat="50.55481" lon="3.46779">
        <ele>25.1</ele>
        <time>2023-05-19T11:47:36.634Z</time>
      </trkpt>
      <trkpt lat="50.55482" lon="3.4673">
        <ele>25.14</ele>
        <time>2023-05-19T11:47:40.513Z</time>
      </trkpt>
      <trkpt lat="50.5548" lon="3.46677">
        <ele>25.55</ele>
        <time>2023-05-19T11:47:44.397Z</time>
      </trkpt>
      <trkpt lat="50.55472" lon="3.46635">
        <ele>26.12</ele>
        <time>2023-05-19T11:47:48.286Z</time>
      </trkpt>
      <trkpt lat="50.55459" lon="3.46583">
        <ele>27.14</ele>
        <time>2023-05-19T11:47:52.180Z</time>
      </trkpt>
      <trkpt lat="50.55451" lon="3.46546">
        <ele>28.22</ele>
        <time>2023-05-19T11:47:56.079Z</time>
      </trkpt>
      <trkpt lat="50.55446" lon="3.46503">
        <ele>29.41</ele>
        <time>2023-05-19T11:47:59.982Z</time>
      </trkpt>
      <trkpt lat="50.55445" lon="3.46463">
        <ele>30.68</ele>
        <time>2023-05-19T11:48:03.889Z</time>
      </trkpt>
      <trkpt lat="50.55447" lon="3.46404">
        <ele>32.3</ele>
        <time>2023-05-19T11:48:07.802Z</time>
      </trkpt>
      <trkpt lat="50.55446" lon="3.46356">
        <ele>33.9</ele>
        <time>2023-05-19T11:48:11.720Z</time>
      </trkpt>
      <trkpt lat="50.55444" lon="3.46314">
        <ele>35.47</ele>
        <time>2023-05-19T11:48:15.642Z</time>
      </trkpt>
      <trkpt lat="50.55434" lon="3.46225">
        <ele>37.18</ele>
        <time>2023-05-19T11:48:19.573Z</time>
      </trkpt>
      <trkpt lat="50.55432" lon="3.46188">
        <ele>38.1</ele>
        <time>2023-05-19T11:48:23.508Z</time>
      </trkpt>
      <trkpt lat="50.55433" lon="3.46162">
        <ele>38.47</ele>
        <time>2023-05-19T11:48:27.446Z</time>
      </trkpt>
      <trkpt lat="50.55433" lon="3.46162">
        <ele>38.48</ele>
        <time>2023-05-19T11:48:31.384Z</time>
      </trkpt>
      <trkpt lat="50.55433" lon="3.46161">
        <ele>38.51</ele>
        <time>2023-05-19T11:48:35.322Z</time>
      </trkpt>
      <trkpt lat="50.5543" lon="3.46151">
        <ele>38.81</ele>
        <time>2023-05-19T11:48:39.261Z</time>
      </trkpt>
      <trkpt lat="50.5543" lon="3.4615">
        <ele>38.83</ele>
        <time>2023-05-19T11:48:43.200Z</time>
      </trkpt>
      <trkpt lat="50.5543" lon="3.4615">
        <ele>38.14</ele>
        <time>2023-05-19T11:48:47.139Z</time>
      </trkpt>
      <trkpt lat="50.5543" lon="3.4615">
        <ele>36.45</ele>
        <time>2023-05-19T11:48:51.078Z</time>
      </trkpt>
      <trkpt lat="50.5543" lon="3.46149">
        <ele>35.3</ele>
        <time>2023-05-19T11:48:55.017Z</time>
      </trkpt>
      <trkpt lat="50.55304" lon="3.45989">
        <ele>32.77</ele>
        <time>2023-05-19T11:48:58.982Z</time>
      </trkpt>
      <trkpt lat="50.55361" lon="3.45894">
        <ele>30.31</ele>
        <time>2023-05-19T11:49:02.961Z</time>
      </trkpt>
      <trkpt lat="50.55475" lon="3.4569">
        <ele>28.16</ele>
        <time>2023-05-19T11:49:06.967Z</time>
      </trkpt>
      <trkpt lat="50.55517" lon="3.45624">
        <ele>27.13</ele>
        <time>2023-05-19T11:49:10.983Z</time>
      </trkpt>
      <trkpt lat="50.55513" lon="3.45607">
        <ele>26.42</ele>
        <time>2023-05-19T11:49:15.001Z</time>
      </trkpt>
      <trkpt lat="50.55521" lon="3.45562">
        <ele>25.66</ele>
        <time>2023-05-19T11:49:19.023Z</time>
      </trkpt>
      <trkpt lat="50.55532" lon="3.45525">
        <ele>25.01</ele>
        <time>2023-05-19T11:49:23.049Z</time>
      </trkpt>
      <trkpt lat="50.5554" lon="3.45501">
        <ele>24.36</ele>
        <time>2023-05-19T11:49:27.078Z</time>
      </trkpt>
      <trkpt lat="50.55577" lon="3.45431">
        <ele>23.72</ele>
        <time>2023-05-19T11:49:31.117Z</time>
      </trkpt>
      <trkpt lat="50.55582" lon="3.45413">
        <ele>23.27</ele>
        <time>2023-05-19T11:49:35.158Z</time>
      </trkpt>
      <trkpt lat="50.55569" lon="3.45403">
        <ele>22.81</ele>
        <time>2023-05-19T11:49:39.201Z</time>
      </trkpt>
      <trkpt lat="50.55525" lon="3.45389">
        <ele>22.37</ele>
        <time>2023-05-19T11:49:43.251Z</time>
      </trkpt>
      <trkpt lat="50.55345" lon="3.4533">
        <ele>21.88</ele>
        <time>2023-05-19T11:49:47.331Z</time>
      </trkpt>
      <trkpt lat="50.55305" lon="3.45318">
        <ele>21.52</ele>
        <time>2023-05-19T11:49:51.417Z</time>
      </trkpt>
      <trkpt lat="50.55292" lon="3.4532">
        <ele>21.6</ele>
        <time>2023-05-19T11:49:55.505Z</time>
      </trkpt>
      <trkpt lat="50.55238" lon="3.45339">
        <ele>22.1</ele>
        <time>2023-05-19T11:49:59.602Z</time>
      </trkpt>
      <trkpt lat="50.5519" lon="3.45355">
        <ele>22.43</ele>
        <time>2023-05-19T11:50:03.707Z</time>
      </trkpt>
      <trkpt lat="50.55173" lon="3.45361">
        <ele>22.24</ele>
        <time>2023-05-19T11:50:07.815Z</time>
      </trkpt>
      <trkpt lat="50.5515" lon="3.4537">
        <ele>22</ele>
        <time>2023-05-19T11:50:11.926Z</time>
      </trkpt>
      <trkpt lat="50.5515" lon="3.45371">
        <ele>22</ele>
        <time>2023-05-19T11:50:16.037Z</time>
      </trkpt>
      <trkpt lat="50.55142" lon="3.45373">
        <ele>21.93</ele>
        <time>2023-05-19T11:50:20.150Z</time>
      </trkpt>
      <trkpt lat="50.55142" lon="3.45374">
        <ele>21.93</ele>
        <time>2023-05-19T11:50:24.263Z</time>
      </trkpt>
      <trkpt lat="50.55119" lon="3.45383">
        <ele>22.91</ele>
        <time>2023-05-19T11:50:28.380Z</time>
      </trkpt>
      <trkpt lat="50.55042" lon="3.4541">
        <ele>23.44</ele>
        <time>2023-05-19T11:50:32.509Z</time>
      </trkpt>
      <trkpt lat="50.55032" lon="3.45412">
        <ele>23.64</ele>
        <time>2023-05-19T11:50:36.640Z</time>
      </trkpt>
      <trkpt lat="50.55027" lon="3.45413">
        <ele>23.6</ele>
        <time>2023-05-19T11:50:40.772Z</time>
      </trkpt>
      <trkpt lat="50.55017" lon="3.45412">
        <ele>23.28</ele>
        <time>2023-05-19T11:50:44.905Z</time>
      </trkpt>
      <trkpt lat="50.54997" lon="3.454">
        <ele>22.75</ele>
        <time>2023-05-19T11:50:49.042Z</time>
      </trkpt>
      <trkpt lat="50.5495" lon="3.45346">
        <ele>22.07</ele>
        <time>2023-05-19T11:50:53.188Z</time>
      </trkpt>
      <trkpt lat="50.54927" lon="3.4531">
        <ele>21.32</ele>
        <time>2023-05-19T11:50:57.339Z</time>
      </trkpt>
      <trkpt lat="50.54821" lon="3.45121">
        <ele>20.49</ele>
        <time>2023-05-19T11:51:01.516Z</time>
      </trkpt>
      <trkpt lat="50.54753" lon="3.45003">
        <ele>19.85</ele>
        <time>2023-05-19T11:51:05.709Z</time>
      </trkpt>
      <trkpt lat="50.54753" lon="3.45003">
        <ele>19.48</ele>
        <time>2023-05-19T11:51:09.902Z</time>
      </trkpt>
      <trkpt lat="50.54752" lon="3.45002">
        <ele>19.45</ele>
        <time>2023-05-19T11:51:14.095Z</time>
      </trkpt>
      <trkpt lat="50.54752" lon="3.45002">
        <ele>19.45</ele>
        <time>2023-05-19T11:51:18.288Z</time>
      </trkpt>
      <trkpt lat="50.54747" lon="3.44994">
        <ele>19.23</ele>
        <time>2023-05-19T11:51:22.483Z</time>
      </trkpt>
      <trkpt lat="50.54746" lon="3.44993">
        <ele>19.23</ele>
        <time>2023-05-19T11:51:26.678Z</time>
      </trkpt>
      <trkpt lat="50.54728" lon="3.44965">
        <ele>19.02</ele>
        <time>2023-05-19T11:51:30.877Z</time>
      </trkpt>
      <trkpt lat="50.54728" lon="3.44965">
        <ele>19.03</ele>
        <time>2023-05-19T11:51:35.076Z</time>
      </trkpt>
      <trkpt lat="50.54592" lon="3.44759">
        <ele>18.44</ele>
        <time>2023-05-19T11:51:39.305Z</time>
      </trkpt>
      <trkpt lat="50.54535" lon="3.44672">
        <ele>18.21</ele>
        <time>2023-05-19T11:51:43.547Z</time>
      </trkpt>
      <trkpt lat="50.54513" lon="3.44649">
        <ele>18.44</ele>
        <time>2023-05-19T11:51:47.793Z</time>
      </trkpt>
      <trkpt lat="50.54467" lon="3.44602">
        <ele>19.17</ele>
        <time>2023-05-19T11:51:52.048Z</time>
      </trkpt>
      <trkpt lat="50.54445" lon="3.44587">
        <ele>19.6</ele>
        <time>2023-05-19T11:51:56.307Z</time>
      </trkpt>
      <trkpt lat="50.54422" lon="3.4458">
        <ele>19.66</ele>
        <time>2023-05-19T11:52:00.569Z</time>
      </trkpt>
      <trkpt lat="50.54403" lon="3.4458">
        <ele>19.62</ele>
        <time>2023-05-19T11:52:04.834Z</time>
      </trkpt>
      <trkpt lat="50.54389" lon="3.44586">
        <ele>19.53</ele>
        <time>2023-05-19T11:52:09.102Z</time>
      </trkpt>
      <trkpt lat="50.5438" lon="3.44595">
        <ele>19.45</ele>
        <time>2023-05-19T11:52:13.371Z</time>
      </trkpt>
      <trkpt lat="50.54332" lon="3.44657">
        <ele>19.28</ele>
        <time>2023-05-19T11:52:17.650Z</time>
      </trkpt>
      <trkpt lat="50.54288" lon="3.44721">
        <ele>18.95</ele>
        <time>2023-05-19T11:52:21.939Z</time>
      </trkpt>
      <trkpt lat="50.54262" lon="3.4474">
        <ele>18.5</ele>
        <time>2023-05-19T11:52:26.233Z</time>
      </trkpt>
      <trkpt lat="50.54248" lon="3.44741">
        <ele>18.01</ele>
        <time>2023-05-19T11:52:30.529Z</time>
      </trkpt>
      <trkpt lat="50.54222" lon="3.44731">
        <ele>17.47</ele>
        <time>2023-05-19T11:52:34.829Z</time>
      </trkpt>
      <trkpt lat="50.54222" lon="3.44731">
        <ele>17.14</ele>
        <time>2023-05-19T11:52:39.129Z</time>
      </trkpt>
      <trkpt lat="50.54138" lon="3.44698">
        <ele>16.8</ele>
        <time>2023-05-19T11:52:43.443Z</time>
      </trkpt>
      <trkpt lat="50.54138" lon="3.44698">
        <ele>16.54</ele>
        <time>2023-05-19T11:52:47.757Z</time>
      </trkpt>
      <trkpt lat="50.54123" lon="3.44692">
        <ele>16.43</ele>
        <time>2023-05-19T11:52:52.073Z</time>
      </trkpt>
      <trkpt lat="50.54132" lon="3.44645">
        <ele>16</ele>
        <time>2023-05-19T11:52:56.394Z</time>
      </trkpt>
      <trkpt lat="50.54166" lon="3.44422">
        <ele>15.38</ele>
        <time>2023-05-19T11:53:00.739Z</time>
      </trkpt>
      <trkpt lat="50.54178" lon="3.44365">
        <ele>14.97</ele>
        <time>2023-05-19T11:53:05.090Z</time>
      </trkpt>
      <trkpt lat="50.54193" lon="3.443">
        <ele>14.7</ele>
        <time>2023-05-19T11:53:09.448Z</time>
      </trkpt>
      <trkpt lat="50.54178" lon="3.44295">
        <ele>14.62</ele>
        <time>2023-05-19T11:53:13.808Z</time>
      </trkpt>
      <trkpt lat="50.54204" lon="3.44126">
        <ele>13.91</ele>
        <time>2023-05-19T11:53:18.186Z</time>
      </trkpt>
      <trkpt lat="50.54204" lon="3.44126">
        <ele>13.91</ele>
        <time>2023-05-19T11:53:22.564Z</time>
      </trkpt>
      <trkpt lat="50.54205" lon="3.44114">
        <ele>13.86</ele>
        <time>2023-05-19T11:53:26.944Z</time>
      </trkpt>
      <trkpt lat="50.54205" lon="3.44114">
        <ele>13.86</ele>
        <time>2023-05-19T11:53:31.324Z</time>
      </trkpt>
      <trkpt lat="50.54205" lon="3.44114">
        <ele>14.68</ele>
        <time>2023-05-19T11:53:35.704Z</time>
      </trkpt>
      <trkpt lat="50.54205" lon="3.44114">
        <ele>14.78</ele>
        <time>2023-05-19T11:53:40.084Z</time>
      </trkpt>
      <trkpt lat="50.54225" lon="3.43988">
        <ele>16.94</ele>
        <time>2023-05-19T11:53:44.477Z</time>
      </trkpt>
      <trkpt lat="50.54225" lon="3.43988">
        <ele>17.28</ele>
        <time>2023-05-19T11:53:48.870Z</time>
      </trkpt>
      <trkpt lat="50.54286" lon="3.43627">
        <ele>16.26</ele>
        <time>2023-05-19T11:53:53.301Z</time>
      </trkpt>
      <trkpt lat="50.54304" lon="3.43511">
        <ele>16.24</ele>
        <time>2023-05-19T11:53:57.744Z</time>
      </trkpt>
      <trkpt lat="50.54304" lon="3.43511">
        <ele>16.14</ele>
        <time>2023-05-19T11:54:02.187Z</time>
      </trkpt>
      <trkpt lat="50.54376" lon="3.43061">
        <ele>16.15</ele>
        <time>2023-05-19T11:54:06.677Z</time>
      </trkpt>
      <trkpt lat="50.54381" lon="3.43059">
        <ele>16.24</ele>
        <time>2023-05-19T11:54:11.168Z</time>
      </trkpt>
      <trkpt lat="50.54384" lon="3.43056">
        <ele>16.49</ele>
        <time>2023-05-19T11:54:15.660Z</time>
      </trkpt>
      <trkpt lat="50.54386" lon="3.4305">
        <ele>16.86</ele>
        <time>2023-05-19T11:54:20.152Z</time>
      </trkpt>
      <trkpt lat="50.54384" lon="3.43042">
        <ele>17.39</ele>
        <time>2023-05-19T11:54:24.645Z</time>
      </trkpt>
      <trkpt lat="50.54379" lon="3.43038">
        <ele>18.1</ele>
        <time>2023-05-19T11:54:29.139Z</time>
      </trkpt>
      <trkpt lat="50.54414" lon="3.42831">
        <ele>19.67</ele>
        <time>2023-05-19T11:54:33.655Z</time>
      </trkpt>
      <trkpt lat="50.5442" lon="3.42792">
        <ele>20.52</ele>
        <time>2023-05-19T11:54:38.175Z</time>
      </trkpt>
      <trkpt lat="50.54439" lon="3.42734">
        <ele>21.28</ele>
        <time>2023-05-19T11:54:42.702Z</time>
      </trkpt>
      <trkpt lat="50.54416" lon="3.42728">
        <ele>21.7</ele>
        <time>2023-05-19T11:54:47.233Z</time>
      </trkpt>
      <trkpt lat="50.54325" lon="3.427">
        <ele>22.02</ele>
        <time>2023-05-19T11:54:51.779Z</time>
      </trkpt>
      <trkpt lat="50.54325" lon="3.427">
        <ele>22.1</ele>
        <time>2023-05-19T11:54:56.325Z</time>
      </trkpt>
      <trkpt lat="50.54239" lon="3.42675">
        <ele>21.89</ele>
        <time>2023-05-19T11:55:00.885Z</time>
      </trkpt>
      <trkpt lat="50.54248" lon="3.42586">
        <ele>21.59</ele>
        <time>2023-05-19T11:55:05.454Z</time>
      </trkpt>
      <trkpt lat="50.54248" lon="3.42573">
        <ele>21.29</ele>
        <time>2023-05-19T11:55:10.024Z</time>
      </trkpt>
      <trkpt lat="50.54235" lon="3.42431">
        <ele>20.82</ele>
        <time>2023-05-19T11:55:14.609Z</time>
      </trkpt>
      <trkpt lat="50.54232" lon="3.42405">
        <ele>20.32</ele>
        <time>2023-05-19T11:55:19.196Z</time>
      </trkpt>
      <trkpt lat="50.54232" lon="3.42405">
        <ele>19.95</ele>
        <time>2023-05-19T11:55:23.783Z</time>
      </trkpt>
      <trkpt lat="50.54211" lon="3.42191">
        <ele>19.38</ele>
        <time>2023-05-19T11:55:28.393Z</time>
      </trkpt>
      <trkpt lat="50.5421" lon="3.42175">
        <ele>19.48</ele>
        <time>2023-05-19T11:55:33.004Z</time>
      </trkpt>
      <trkpt lat="50.54187" lon="3.41949">
        <ele>20.06</ele>
        <time>2023-05-19T11:55:37.638Z</time>
      </trkpt>
      <trkpt lat="50.5418" lon="3.41882">
        <ele>20.23</ele>
        <time>2023-05-19T11:55:42.279Z</time>
      </trkpt>
      <trkpt lat="50.54169" lon="3.41779">
        <ele>20.89</ele>
        <time>2023-05-19T11:55:46.931Z</time>
      </trkpt>
      <trkpt lat="50.54169" lon="3.41779">
        <ele>20.9</ele>
        <time>2023-05-19T11:55:51.583Z</time>
      </trkpt>
      <trkpt lat="50.54168" lon="3.41767">
        <ele>20.99</ele>
        <time>2023-05-19T11:55:56.236Z</time>
      </trkpt>
      <trkpt lat="50.54168" lon="3.41767">
        <ele>21</ele>
        <time>2023-05-19T11:56:00.889Z</time>
      </trkpt>
      <trkpt lat="50.54158" lon="3.4168">
        <ele>21.64</ele>
        <time>2023-05-19T11:56:05.551Z</time>
      </trkpt>
      <trkpt lat="50.54152" lon="3.41643">
        <ele>21.8</ele>
        <time>2023-05-19T11:56:10.217Z</time>
      </trkpt>
      <trkpt lat="50.54141" lon="3.41601">
        <ele>21.88</ele>
        <time>2023-05-19T11:56:14.888Z</time>
      </trkpt>
      <trkpt lat="50.54066" lon="3.41387">
        <ele>22.2</ele>
        <time>2023-05-19T11:56:19.584Z</time>
      </trkpt>
      <trkpt lat="50.54054" lon="3.41353">
        <ele>22.42</ele>
        <time>2023-05-19T11:56:24.284Z</time>
      </trkpt>
      <trkpt lat="50.54048" lon="3.41329">
        <ele>22.81</ele>
        <time>2023-05-19T11:56:28.986Z</time>
      </trkpt>
      <trkpt lat="50.54044" lon="3.41311">
        <ele>23.13</ele>
        <time>2023-05-19T11:56:33.690Z</time>
      </trkpt>
      <trkpt lat="50.5403" lon="3.41105">
        <ele>23.72</ele>
        <time>2023-05-19T11:56:38.416Z</time>
      </trkpt>
      <trkpt lat="50.54024" lon="3.41041">
        <ele>24.14</ele>
        <time>2023-05-19T11:56:43.148Z</time>
      </trkpt>
      <trkpt lat="50.54018" lon="3.40995">
        <ele>24.46</ele>
        <time>2023-05-19T11:56:47.885Z</time>
      </trkpt>
      <trkpt lat="50.5397" lon="3.40683">
        <ele>25.3</ele>
        <time>2023-05-19T11:56:52.655Z</time>
      </trkpt>
      <trkpt lat="50.53943" lon="3.40587">
        <ele>25.47</ele>
        <time>2023-05-19T11:56:57.435Z</time>
      </trkpt>
      <trkpt lat="50.53934" lon="3.40545">
        <ele>25.65</ele>
        <time>2023-05-19T11:57:02.220Z</time>
      </trkpt>
      <trkpt lat="50.53913" lon="3.40421">
        <ele>25.71</ele>
        <time>2023-05-19T11:57:07.018Z</time>
      </trkpt>
      <trkpt lat="50.53909" lon="3.40413">
        <ele>25.86</ele>
        <time>2023-05-19T11:57:11.817Z</time>
      </trkpt>
      <trkpt lat="50.53907" lon="3.40407">
        <ele>26.02</ele>
        <time>2023-05-19T11:57:16.617Z</time>
      </trkpt>
      <trkpt lat="50.53916" lon="3.4037">
        <ele>26.36</ele>
        <time>2023-05-19T11:57:21.421Z</time>
      </trkpt>
      <trkpt lat="50.53927" lon="3.40308">
        <ele>26.5</ele>
        <time>2023-05-19T11:57:26.231Z</time>
      </trkpt>
      <trkpt lat="50.53938" lon="3.40241">
        <ele>26.33</ele>
        <time>2023-05-19T11:57:31.048Z</time>
      </trkpt>
      <trkpt lat="50.53952" lon="3.40212">
        <ele>26.17</ele>
        <time>2023-05-19T11:57:35.869Z</time>
      </trkpt>
      <trkpt lat="50.53964" lon="3.40194">
        <ele>25.74</ele>
        <time>2023-05-19T11:57:40.693Z</time>
      </trkpt>
      <trkpt lat="50.54061" lon="3.40057">
        <ele>25.22</ele>
        <time>2023-05-19T11:57:45.538Z</time>
      </trkpt>
      <trkpt lat="50.54093" lon="3.40011">
        <ele>24.65</ele>
        <time>2023-05-19T11:57:50.390Z</time>
      </trkpt>
      <trkpt lat="50.54122" lon="3.39978">
        <ele>24.58</ele>
        <time>2023-05-19T11:57:55.247Z</time>
      </trkpt>
      <trkpt lat="50.54277" lon="3.39927">
        <ele>24.97</ele>
        <time>2023-05-19T11:58:00.130Z</time>
      </trkpt>
      <trkpt lat="50.54321" lon="3.39905">
        <ele>24.77</ele>
        <time>2023-05-19T11:58:05.020Z</time>
      </trkpt>
      <trkpt lat="50.54358" lon="3.39879">
        <ele>24.67</ele>
        <time>2023-05-19T11:58:09.917Z</time>
      </trkpt>
      <trkpt lat="50.5443" lon="3.39822">
        <ele>24.63</ele>
        <time>2023-05-19T11:58:14.827Z</time>
      </trkpt>
      <trkpt lat="50.5443" lon="3.39822">
        <ele>24.63</ele>
        <time>2023-05-19T11:58:19.737Z</time>
      </trkpt>
      <trkpt lat="50.54438" lon="3.39817">
        <ele>24.63</ele>
        <time>2023-05-19T11:58:24.648Z</time>
      </trkpt>
      <trkpt lat="50.54438" lon="3.39816">
        <ele>24.63</ele>
        <time>2023-05-19T11:58:29.559Z</time>
      </trkpt>
      <trkpt lat="50.54438" lon="3.39816">
        <ele>24.67</ele>
        <time>2023-05-19T11:58:34.470Z</time>
      </trkpt>
      <trkpt lat="50.54501" lon="3.39767">
        <ele>25.92</ele>
        <time>2023-05-19T11:58:39.392Z</time>
      </trkpt>
      <trkpt lat="50.54501" lon="3.39767">
        <ele>26.33</ele>
        <time>2023-05-19T11:58:44.314Z</time>
      </trkpt>
      <trkpt lat="50.54556" lon="3.39723">
        <ele>27.03</ele>
        <time>2023-05-19T11:58:49.246Z</time>
      </trkpt>
      <trkpt lat="50.54585" lon="3.39696">
        <ele>27.69</ele>
        <time>2023-05-19T11:58:54.184Z</time>
      </trkpt>
      <trkpt lat="50.54611" lon="3.39661">
        <ele>28.24</ele>
        <time>2023-05-19T11:58:59.127Z</time>
      </trkpt>
      <trkpt lat="50.54629" lon="3.3963">
        <ele>28.58</ele>
        <time>2023-05-19T11:59:04.074Z</time>
      </trkpt>
      <trkpt lat="50.54635" lon="3.39618">
        <ele>28.87</ele>
        <time>2023-05-19T11:59:09.023Z</time>
      </trkpt>
      <trkpt lat="50.54649" lon="3.39583">
        <ele>29.03</ele>
        <time>2023-05-19T11:59:13.976Z</time>
      </trkpt>
      <trkpt lat="50.54662" lon="3.39539">
        <ele>29.37</ele>
        <time>2023-05-19T11:59:18.934Z</time>
      </trkpt>
      <trkpt lat="50.54673" lon="3.3948">
        <ele>29.88</ele>
        <time>2023-05-19T11:59:23.898Z</time>
      </trkpt>
      <trkpt lat="50.54681" lon="3.39443">
        <ele>30.24</ele>
        <time>2023-05-19T11:59:28.866Z</time>
      </trkpt>
      <trkpt lat="50.54686" lon="3.39417">
        <ele>30.7</ele>
        <time>2023-05-19T11:59:33.837Z</time>
      </trkpt>
      <trkpt lat="50.54695" lon="3.39387">
        <ele>31.05</ele>
        <time>2023-05-19T11:59:38.811Z</time>
      </trkpt>
      <trkpt lat="50.54711" lon="3.3935">
        <ele>31.41</ele>
        <time>2023-05-19T11:59:43.790Z</time>
      </trkpt>
      <trkpt lat="50.54721" lon="3.39322">
        <ele>31.66</ele>
        <time>2023-05-19T11:59:48.772Z</time>
      </trkpt>
      <trkpt lat="50.54749" lon="3.3921">
        <ele>31.96</ele>
        <time>2023-05-19T11:59:53.767Z</time>
      </trkpt>
      <trkpt lat="50.54755" lon="3.39185">
        <ele>32.03</ele>
        <time>2023-05-19T11:59:58.764Z</time>
      </trkpt>
      <trkpt lat="50.54769" lon="3.39062">
        <ele>32.51</ele>
        <time>2023-05-19T12:00:03.774Z</time>
      </trkpt>
      <trkpt lat="50.54774" lon="3.38926">
        <ele>32.09</ele>
        <time>2023-05-19T12:00:08.798Z</time>
      </trkpt>
      <trkpt lat="50.54777" lon="3.38912">
        <ele>31.96</ele>
        <time>2023-05-19T12:00:13.823Z</time>
      </trkpt>
      <trkpt lat="50.5478" lon="3.38893">
        <ele>31.55</ele>
        <time>2023-05-19T12:00:18.850Z</time>
      </trkpt>
      <trkpt lat="50.54798" lon="3.3874">
        <ele>31.03</ele>
        <time>2023-05-19T12:00:23.893Z</time>
      </trkpt>
      <trkpt lat="50.54798" lon="3.3874">
        <ele>31.03</ele>
        <time>2023-05-19T12:00:28.936Z</time>
      </trkpt>
      <trkpt lat="50.54799" lon="3.38728">
        <ele>30.99</ele>
        <time>2023-05-19T12:00:33.981Z</time>
      </trkpt>
      <trkpt lat="50.54799" lon="3.38728">
        <ele>30.99</ele>
        <time>2023-05-19T12:00:39.026Z</time>
      </trkpt>
      <trkpt lat="50.54799" lon="3.38728">
        <ele>29.84</ele>
        <time>2023-05-19T12:00:44.071Z</time>
      </trkpt>
      <trkpt lat="50.54799" lon="3.38728">
        <ele>29.84</ele>
        <time>2023-05-19T12:00:49.116Z</time>
      </trkpt>
      <trkpt lat="50.54799" lon="3.38728">
        <ele>29.84</ele>
        <time>2023-05-19T12:00:54.161Z</time>
      </trkpt>
      <trkpt lat="50.548" lon="3.38721">
        <ele>29.77</ele>
        <time>2023-05-19T12:00:59.206Z</time>
      </trkpt>
      <trkpt lat="50.54808" lon="3.38651">
        <ele>29.71</ele>
        <time>2023-05-19T12:01:04.259Z</time>
      </trkpt>
      <trkpt lat="50.54818" lon="3.38647">
        <ele>29.89</ele>
        <time>2023-05-19T12:01:09.313Z</time>
      </trkpt>
      <trkpt lat="50.54842" lon="3.38644">
        <ele>30.24</ele>
        <time>2023-05-19T12:01:14.371Z</time>
      </trkpt>
      <trkpt lat="50.54892" lon="3.38648">
        <ele>30.52</ele>
        <time>2023-05-19T12:01:19.437Z</time>
      </trkpt>
      <trkpt lat="50.54895" lon="3.38577">
        <ele>30.55</ele>
        <time>2023-05-19T12:01:24.510Z</time>
      </trkpt>
      <trkpt lat="50.549" lon="3.3843">
        <ele>31.08</ele>
        <time>2023-05-19T12:01:29.598Z</time>
      </trkpt>
      <trkpt lat="50.549" lon="3.3843">
        <ele>31.39</ele>
        <time>2023-05-19T12:01:34.686Z</time>
      </trkpt>
      <trkpt lat="50.54902" lon="3.38389">
        <ele>31.72</ele>
        <time>2023-05-19T12:01:39.779Z</time>
      </trkpt>
      <trkpt lat="50.54927" lon="3.38292">
        <ele>32.22</ele>
        <time>2023-05-19T12:01:44.882Z</time>
      </trkpt>
      <trkpt lat="50.54937" lon="3.38218">
        <ele>32.46</ele>
        <time>2023-05-19T12:01:49.993Z</time>
      </trkpt>
      <trkpt lat="50.54946" lon="3.38124">
        <ele>32.68</ele>
        <time>2023-05-19T12:01:55.114Z</time>
      </trkpt>
      <trkpt lat="50.54946" lon="3.38062">
        <ele>32.77</ele>
        <time>2023-05-19T12:02:00.241Z</time>
      </trkpt>
      <trkpt lat="50.54937" lon="3.38009">
        <ele>32.84</ele>
        <time>2023-05-19T12:02:05.374Z</time>
      </trkpt>
      <trkpt lat="50.54911" lon="3.37924">
        <ele>32.71</ele>
        <time>2023-05-19T12:02:10.516Z</time>
      </trkpt>
      <trkpt lat="50.54902" lon="3.37898">
        <ele>32.61</ele>
        <time>2023-05-19T12:02:15.661Z</time>
      </trkpt>
      <trkpt lat="50.54905" lon="3.37881">
        <ele>32.55</ele>
        <time>2023-05-19T12:02:20.808Z</time>
      </trkpt>
      <trkpt lat="50.54921" lon="3.37832">
        <ele>32.55</ele>
        <time>2023-05-19T12:02:25.961Z</time>
      </trkpt>
      <trkpt lat="50.54938" lon="3.37777">
        <ele>32.51</ele>
        <time>2023-05-19T12:02:31.120Z</time>
      </trkpt>
      <trkpt lat="50.5494" lon="3.37761">
        <ele>32.48</ele>
        <time>2023-05-19T12:02:36.281Z</time>
      </trkpt>
      <trkpt lat="50.54935" lon="3.37706">
        <ele>32.45</ele>
        <time>2023-05-19T12:02:41.447Z</time>
      </trkpt>
      <trkpt lat="50.54936" lon="3.3769">
        <ele>32.55</ele>
        <time>2023-05-19T12:02:46.615Z</time>
      </trkpt>
      <trkpt lat="50.54937" lon="3.37675">
        <ele>32.73</ele>
        <time>2023-05-19T12:02:51.784Z</time>
      </trkpt>
      <trkpt lat="50.54943" lon="3.37659">
        <ele>33</ele>
        <time>2023-05-19T12:02:56.955Z</time>
      </trkpt>
      <trkpt lat="50.54951" lon="3.37642">
        <ele>33.42</ele>
        <time>2023-05-19T12:03:02.129Z</time>
      </trkpt>
      <trkpt lat="50.5491" lon="3.37577">
        <ele>33.91</ele>
        <time>2023-05-19T12:03:07.312Z</time>
      </trkpt>
      <trkpt lat="50.54888" lon="3.37551">
        <ele>34.52</ele>
        <time>2023-05-19T12:03:12.499Z</time>
      </trkpt>
      <trkpt lat="50.54875" lon="3.37542">
        <ele>35.02</ele>
        <time>2023-05-19T12:03:17.689Z</time>
      </trkpt>
      <trkpt lat="50.54876" lon="3.37525">
        <ele>35.51</ele>
        <time>2023-05-19T12:03:22.880Z</time>
      </trkpt>
      <trkpt lat="50.54871" lon="3.37486">
        <ele>36</ele>
        <time>2023-05-19T12:03:28.075Z</time>
      </trkpt>
      <trkpt lat="50.54848" lon="3.37386">
        <ele>36.53</ele>
        <time>2023-05-19T12:03:33.281Z</time>
      </trkpt>
      <trkpt lat="50.54821" lon="3.37263">
        <ele>37.02</ele>
        <time>2023-05-19T12:03:38.500Z</time>
      </trkpt>
      <trkpt lat="50.54804" lon="3.37182">
        <ele>37.44</ele>
        <time>2023-05-19T12:03:43.728Z</time>
      </trkpt>
      <trkpt lat="50.54763" lon="3.37012">
        <ele>37.9</ele>
        <time>2023-05-19T12:03:48.975Z</time>
      </trkpt>
      <trkpt lat="50.54756" lon="3.36935">
        <ele>37.73</ele>
        <time>2023-05-19T12:03:54.230Z</time>
      </trkpt>
      <trkpt lat="50.54753" lon="3.36817">
        <ele>37.58</ele>
        <time>2023-05-19T12:03:59.497Z</time>
      </trkpt>
      <trkpt lat="50.54749" lon="3.36748">
        <ele>37.61</ele>
        <time>2023-05-19T12:04:04.771Z</time>
      </trkpt>
      <trkpt lat="50.54734" lon="3.36706">
        <ele>37.59</ele>
        <time>2023-05-19T12:04:10.050Z</time>
      </trkpt>
      <trkpt lat="50.54734" lon="3.36696">
        <ele>37.67</ele>
        <time>2023-05-19T12:04:15.330Z</time>
      </trkpt>
      <trkpt lat="50.54743" lon="3.36657">
        <ele>37.82</ele>
        <time>2023-05-19T12:04:20.614Z</time>
      </trkpt>
      <trkpt lat="50.54791" lon="3.365">
        <ele>38.06</ele>
        <time>2023-05-19T12:04:25.916Z</time>
      </trkpt>
      <trkpt lat="50.54791" lon="3.365">
        <ele>38.21</ele>
        <time>2023-05-19T12:04:31.218Z</time>
      </trkpt>
      <trkpt lat="50.54806" lon="3.36439">
        <ele>38.56</ele>
        <time>2023-05-19T12:04:36.526Z</time>
      </trkpt>
      <trkpt lat="50.54821" lon="3.36349">
        <ele>38.71</ele>
        <time>2023-05-19T12:04:41.844Z</time>
      </trkpt>
      <trkpt lat="50.54824" lon="3.36302">
        <ele>38.72</ele>
        <time>2023-05-19T12:04:47.167Z</time>
      </trkpt>
      <trkpt lat="50.5485" lon="3.36033">
        <ele>39.09</ele>
        <time>2023-05-19T12:04:52.518Z</time>
      </trkpt>
      <trkpt lat="50.54868" lon="3.35956">
        <ele>39.19</ele>
        <time>2023-05-19T12:04:57.877Z</time>
      </trkpt>
      <trkpt lat="50.54878" lon="3.35928">
        <ele>39.37</ele>
        <time>2023-05-19T12:05:03.239Z</time>
      </trkpt>
      <trkpt lat="50.54903" lon="3.35875">
        <ele>39.5</ele>
        <time>2023-05-19T12:05:08.608Z</time>
      </trkpt>
      <trkpt lat="50.54958" lon="3.35791">
        <ele>39.69</ele>
        <time>2023-05-19T12:05:13.989Z</time>
      </trkpt>
      <trkpt lat="50.54958" lon="3.35791">
        <ele>39.7</ele>
        <time>2023-05-19T12:05:19.370Z</time>
      </trkpt>
      <trkpt lat="50.54964" lon="3.35783">
        <ele>39.73</ele>
        <time>2023-05-19T12:05:24.752Z</time>
      </trkpt>
      <trkpt lat="50.54964" lon="3.35782">
        <ele>39.74</ele>
        <time>2023-05-19T12:05:30.134Z</time>
      </trkpt>
      <trkpt lat="50.54964" lon="3.35782">
        <ele>39.75</ele>
        <time>2023-05-19T12:05:35.516Z</time>
      </trkpt>
      <trkpt lat="50.54964" lon="3.35782">
        <ele>39.76</ele>
        <time>2023-05-19T12:05:40.899Z</time>
      </trkpt>
      <trkpt lat="50.54968" lon="3.35777">
        <ele>39.78</ele>
        <time>2023-05-19T12:05:46.282Z</time>
      </trkpt>
      <trkpt lat="50.54968" lon="3.35777">
        <ele>42.62</ele>
        <time>2023-05-19T12:05:51.665Z</time>
      </trkpt>
      <trkpt lat="50.55006" lon="3.35719">
        <ele>44.17</ele>
        <time>2023-05-19T12:05:57.057Z</time>
      </trkpt>
      <trkpt lat="50.55019" lon="3.35695">
        <ele>45.69</ele>
        <time>2023-05-19T12:06:02.452Z</time>
      </trkpt>
      <trkpt lat="50.55065" lon="3.35592">
        <ele>48.13</ele>
        <time>2023-05-19T12:06:07.860Z</time>
      </trkpt>
      <trkpt lat="50.55125" lon="3.35461">
        <ele>50.4</ele>
        <time>2023-05-19T12:06:13.284Z</time>
      </trkpt>
      <trkpt lat="50.55145" lon="3.3541">
        <ele>52.94</ele>
        <time>2023-05-19T12:06:18.714Z</time>
      </trkpt>
      <trkpt lat="50.55223" lon="3.35242">
        <ele>55.79</ele>
        <time>2023-05-19T12:06:24.166Z</time>
      </trkpt>
      <trkpt lat="50.55252" lon="3.35166">
        <ele>58.18</ele>
        <time>2023-05-19T12:06:29.627Z</time>
      </trkpt>
      <trkpt lat="50.55257" lon="3.35139">
        <ele>59.65</ele>
        <time>2023-05-19T12:06:35.091Z</time>
      </trkpt>
      <trkpt lat="50.55264" lon="3.3508">
        <ele>60.59</ele>
        <time>2023-05-19T12:06:40.561Z</time>
      </trkpt>
      <trkpt lat="50.55198" lon="3.35085">
        <ele>61.49</ele>
        <time>2023-05-19T12:06:46.041Z</time>
      </trkpt>
      <trkpt lat="50.55186" lon="3.35089">
        <ele>61.77</ele>
        <time>2023-05-19T12:06:51.523Z</time>
      </trkpt>
      <trkpt lat="50.55178" lon="3.35096">
        <ele>61.77</ele>
        <time>2023-05-19T12:06:57.007Z</time>
      </trkpt>
      <trkpt lat="50.55169" lon="3.35106">
        <ele>61.58</ele>
        <time>2023-05-19T12:07:02.492Z</time>
      </trkpt>
      <trkpt lat="50.55145" lon="3.3515">
        <ele>60.98</ele>
        <time>2023-05-19T12:07:07.983Z</time>
      </trkpt>
      <trkpt lat="50.55134" lon="3.35157">
        <ele>60.64</ele>
        <time>2023-05-19T12:07:13.476Z</time>
      </trkpt>
      <trkpt lat="50.55106" lon="3.35154">
        <ele>60.46</ele>
        <time>2023-05-19T12:07:18.974Z</time>
      </trkpt>
      <trkpt lat="50.55086" lon="3.35145">
        <ele>60.37</ele>
        <time>2023-05-19T12:07:24.475Z</time>
      </trkpt>
      <trkpt lat="50.55067" lon="3.35129">
        <ele>60.49</ele>
        <time>2023-05-19T12:07:29.980Z</time>
      </trkpt>
      <trkpt lat="50.55056" lon="3.35124">
        <ele>60.61</ele>
        <time>2023-05-19T12:07:35.486Z</time>
      </trkpt>
      <trkpt lat="50.5495" lon="3.35083">
        <ele>61.04</ele>
        <time>2023-05-19T12:07:41.010Z</time>
      </trkpt>
      <trkpt lat="50.54942" lon="3.3508">
        <ele>61.11</ele>
        <time>2023-05-19T12:07:46.535Z</time>
      </trkpt>
      <trkpt lat="50.54906" lon="3.35081">
        <ele>61.07</ele>
        <time>2023-05-19T12:07:52.066Z</time>
      </trkpt>
      <trkpt lat="50.54906" lon="3.35081">
        <ele>61</ele>
        <time>2023-05-19T12:07:57.597Z</time>
      </trkpt>
      <trkpt lat="50.54861" lon="3.35088">
        <ele>60.84</ele>
        <time>2023-05-19T12:08:03.135Z</time>
      </trkpt>
      <trkpt lat="50.54847" lon="3.35093">
        <ele>60.45</ele>
        <time>2023-05-19T12:08:08.676Z</time>
      </trkpt>
      <trkpt lat="50.54834" lon="3.35089">
        <ele>59.99</ele>
        <time>2023-05-19T12:08:14.219Z</time>
      </trkpt>
      <trkpt lat="50.54807" lon="3.35073">
        <ele>59.26</ele>
        <time>2023-05-19T12:08:19.766Z</time>
      </trkpt>
      <trkpt lat="50.54707" lon="3.35067">
        <ele>58.22</ele>
        <time>2023-05-19T12:08:25.329Z</time>
      </trkpt>
      <trkpt lat="50.54693" lon="3.35064">
        <ele>57.54</ele>
        <time>2023-05-19T12:08:30.895Z</time>
      </trkpt>
      <trkpt lat="50.5467" lon="3.3505">
        <ele>56.71</ele>
        <time>2023-05-19T12:08:36.465Z</time>
      </trkpt>
      <trkpt lat="50.54604" lon="3.34982">
        <ele>55.73</ele>
        <time>2023-05-19T12:08:42.047Z</time>
      </trkpt>
      <trkpt lat="50.5457" lon="3.34969">
        <ele>55.16</ele>
        <time>2023-05-19T12:08:47.635Z</time>
      </trkpt>
      <trkpt lat="50.54551" lon="3.34964">
        <ele>54.65</ele>
        <time>2023-05-19T12:08:53.226Z</time>
      </trkpt>
      <trkpt lat="50.54551" lon="3.34964">
        <ele>54.65</ele>
        <time>2023-05-19T12:08:58.817Z</time>
      </trkpt>
      <trkpt lat="50.54548" lon="3.34963">
        <ele>54.58</ele>
        <time>2023-05-19T12:09:04.408Z</time>
      </trkpt>
      <trkpt lat="50.54543" lon="3.34962">
        <ele>53.38</ele>
        <time>2023-05-19T12:09:10.000Z</time>
      </trkpt>
      <trkpt lat="50.54543" lon="3.34962">
        <ele>53.3</ele>
        <time>2023-05-19T12:09:15.592Z</time>
      </trkpt>
      <trkpt lat="50.54542" lon="3.34962">
        <ele>53.21</ele>
        <time>2023-05-19T12:09:21.184Z</time>
      </trkpt>
      <trkpt lat="50.54542" lon="3.34961">
        <ele>53.11</ele>
        <time>2023-05-19T12:09:26.776Z</time>
      </trkpt>
      <trkpt lat="50.54537" lon="3.3496">
        <ele>51.91</ele>
        <time>2023-05-19T12:09:32.369Z</time>
      </trkpt>
      <trkpt lat="50.54497" lon="3.34951">
        <ele>51.25</ele>
        <time>2023-05-19T12:09:37.969Z</time>
      </trkpt>
      <trkpt lat="50.5448" lon="3.3494">
        <ele>50.9</ele>
        <time>2023-05-19T12:09:43.572Z</time>
      </trkpt>
      <trkpt lat="50.54458" lon="3.34893">
        <ele>50.6</ele>
        <time>2023-05-19T12:09:49.181Z</time>
      </trkpt>
      <trkpt lat="50.54439" lon="3.34863">
        <ele>50.75</ele>
        <time>2023-05-19T12:09:54.794Z</time>
      </trkpt>
      <trkpt lat="50.54453" lon="3.34592">
        <ele>52.03</ele>
        <time>2023-05-19T12:10:00.435Z</time>
      </trkpt>
      <trkpt lat="50.54462" lon="3.34552">
        <ele>52.65</ele>
        <time>2023-05-19T12:10:06.080Z</time>
      </trkpt>
      <trkpt lat="50.54468" lon="3.34536">
        <ele>53.47</ele>
        <time>2023-05-19T12:10:11.727Z</time>
      </trkpt>
      <trkpt lat="50.54475" lon="3.34525">
        <ele>54.44</ele>
        <time>2023-05-19T12:10:17.375Z</time>
      </trkpt>
      <trkpt lat="50.54586" lon="3.3438">
        <ele>56.17</ele>
        <time>2023-05-19T12:10:23.046Z</time>
      </trkpt>
      <trkpt lat="50.54592" lon="3.34368">
        <ele>57.26</ele>
        <time>2023-05-19T12:10:28.719Z</time>
      </trkpt>
      <trkpt lat="50.54618" lon="3.3428">
        <ele>58.57</ele>
        <time>2023-05-19T12:10:34.402Z</time>
      </trkpt>
      <trkpt lat="50.54678" lon="3.34035">
        <ele>59.76</ele>
        <time>2023-05-19T12:10:40.112Z</time>
      </trkpt>
      <trkpt lat="50.54665" lon="3.34027">
        <ele>60.3</ele>
        <time>2023-05-19T12:10:45.824Z</time>
      </trkpt>
      <trkpt lat="50.5463" lon="3.34006">
        <ele>60.52</ele>
        <time>2023-05-19T12:10:51.542Z</time>
      </trkpt>
      <trkpt lat="50.54613" lon="3.33995">
        <ele>60.45</ele>
        <time>2023-05-19T12:10:57.263Z</time>
      </trkpt>
    </trkseg>
  </trk>
</gpx>